<?xml version="1.0" encoding="UTF-8" standalone="no" ?>
<gpx xmlns="http://www.topografix.com/GPX/1/1" xmlns:xsi="http://www.w3.org/2001/XMLSchema-instance" xsi:schemaLocation="http://www.topografix.com/GPX/1/1 http://www.topografix.com/GPX/1/1/gpx.xsd" version="1.1" creator="VisuGPX - https://www.visugpx.com">
  <metadata>
    <name>Arronnes Mariol 25 kms</name>
    <desc><![CDATA[Rando en boucle au depart d arronnes parcourt facile avec pas mal de liaisons sur route qui peut etre fait meme si les conditions sont tres humides.]]></desc>
  </metadata>
  <trk>
    <name><![CDATA[2013-03-31 13:53]]></name>
    <desc><![CDATA[<h1>OruxMaps</h1><br /><hr align="center" width="480" style="height: 2px; width: 517px"/><h2>Nom: 2013-03-31 13:53</h2><br /><p>Temps de départ: 03/31/2013 13:54</p><p>Temps d'arrivée: 03/31/2013 16:19</p><p>Distance: 25,7 km (02:25)</p><p>Temps déplacement: 01:25</p><p>Vitesse moyenne: 10,6 km/h</p><p>Vitesse moyenne: 18 km/h</p><p>Vitess Max.: 61 km/h</p><p>Altitude minimale: 349 m</p><p>Altitude maximale: 671 m</p><p>Vitesse d'élévation: 553,6 m/h</p><p>Vitesse de descente: -1477,3 m/h</p><p>Gain Altitude: 875 m</p><p>Perte Altitude: -878 m</p><p>Temps d'élévation: 01:34</p><p>Temps de descente: 00:35</p><hr align="center" width="480" style="height: 2px; width: 517px"/>]]></desc>
    <trkseg>
      <trkpt lat="46.05911" lon="3.56794">
        <ele>377.14</ele>
        <time>2013-03-31T11:54:32Z</time>
      </trkpt>
      <trkpt lat="46.05893" lon="3.56783">
        <ele>374.46</ele>
        <time>2013-03-31T11:54:42Z</time>
      </trkpt>
      <trkpt lat="46.05885" lon="3.56753">
        <ele>372.66</ele>
        <time>2013-03-31T11:54:49Z</time>
      </trkpt>
      <trkpt lat="46.05886" lon="3.56723">
        <ele>371.07</ele>
        <time>2013-03-31T11:54:55Z</time>
      </trkpt>
      <trkpt lat="46.0589" lon="3.56695">
        <ele>369.91</ele>
        <time>2013-03-31T11:55:00Z</time>
      </trkpt>
      <trkpt lat="46.05894" lon="3.56669">
        <ele>368.63</ele>
        <time>2013-03-31T11:55:05Z</time>
      </trkpt>
      <trkpt lat="46.05898" lon="3.56642">
        <ele>367.12</ele>
        <time>2013-03-31T11:55:12Z</time>
      </trkpt>
      <trkpt lat="46.05912" lon="3.56624">
        <ele>365.85</ele>
        <time>2013-03-31T11:55:20Z</time>
      </trkpt>
      <trkpt lat="46.05929" lon="3.56616">
        <ele>364.72</ele>
        <time>2013-03-31T11:55:28Z</time>
      </trkpt>
      <trkpt lat="46.0594" lon="3.56594">
        <ele>363.67</ele>
        <time>2013-03-31T11:55:37Z</time>
      </trkpt>
      <trkpt lat="46.05953" lon="3.56573">
        <ele>362.62</ele>
        <time>2013-03-31T11:55:47Z</time>
      </trkpt>
      <trkpt lat="46.0597" lon="3.56558">
        <ele>362.56</ele>
        <time>2013-03-31T11:55:57Z</time>
      </trkpt>
      <trkpt lat="46.05986" lon="3.56543">
        <ele>362.8</ele>
        <time>2013-03-31T11:56:05Z</time>
      </trkpt>
      <trkpt lat="46.06003" lon="3.5653">
        <ele>363.48</ele>
        <time>2013-03-31T11:56:13Z</time>
      </trkpt>
      <trkpt lat="46.06019" lon="3.56517">
        <ele>364.36</ele>
        <time>2013-03-31T11:56:20Z</time>
      </trkpt>
      <trkpt lat="46.06038" lon="3.56506">
        <ele>365.11</ele>
        <time>2013-03-31T11:56:27Z</time>
      </trkpt>
      <trkpt lat="46.06057" lon="3.56498">
        <ele>365.41</ele>
        <time>2013-03-31T11:56:31Z</time>
      </trkpt>
      <trkpt lat="46.06077" lon="3.56493">
        <ele>366.19</ele>
        <time>2013-03-31T11:56:35Z</time>
      </trkpt>
      <trkpt lat="46.06095" lon="3.56487">
        <ele>366.44</ele>
        <time>2013-03-31T11:56:39Z</time>
      </trkpt>
      <trkpt lat="46.06117" lon="3.56478">
        <ele>366.53</ele>
        <time>2013-03-31T11:56:44Z</time>
      </trkpt>
      <trkpt lat="46.06137" lon="3.56468">
        <ele>366.55</ele>
        <time>2013-03-31T11:56:49Z</time>
      </trkpt>
      <trkpt lat="46.06153" lon="3.56455">
        <ele>366.3</ele>
        <time>2013-03-31T11:56:53Z</time>
      </trkpt>
      <trkpt lat="46.06171" lon="3.56448">
        <ele>365.73</ele>
        <time>2013-03-31T11:56:58Z</time>
      </trkpt>
      <trkpt lat="46.06189" lon="3.5644">
        <ele>365.61</ele>
        <time>2013-03-31T11:57:02Z</time>
      </trkpt>
      <trkpt lat="46.06209" lon="3.56427">
        <ele>366.01</ele>
        <time>2013-03-31T11:57:06Z</time>
      </trkpt>
      <trkpt lat="46.06229" lon="3.56416">
        <ele>366.38</ele>
        <time>2013-03-31T11:57:10Z</time>
      </trkpt>
      <trkpt lat="46.06248" lon="3.56405">
        <ele>366.5</ele>
        <time>2013-03-31T11:57:14Z</time>
      </trkpt>
      <trkpt lat="46.06267" lon="3.56393">
        <ele>367.12</ele>
        <time>2013-03-31T11:57:19Z</time>
      </trkpt>
      <trkpt lat="46.06285" lon="3.5638">
        <ele>367.89</ele>
        <time>2013-03-31T11:57:24Z</time>
      </trkpt>
      <trkpt lat="46.06301" lon="3.56367">
        <ele>368.4</ele>
        <time>2013-03-31T11:57:29Z</time>
      </trkpt>
      <trkpt lat="46.0632" lon="3.56358">
        <ele>368.52</ele>
        <time>2013-03-31T11:57:35Z</time>
      </trkpt>
      <trkpt lat="46.06338" lon="3.56345">
        <ele>369.67</ele>
        <time>2013-03-31T11:57:39Z</time>
      </trkpt>
      <trkpt lat="46.06353" lon="3.56328">
        <ele>369.83</ele>
        <time>2013-03-31T11:57:43Z</time>
      </trkpt>
      <trkpt lat="46.06367" lon="3.56309">
        <ele>369.39</ele>
        <time>2013-03-31T11:57:47Z</time>
      </trkpt>
      <trkpt lat="46.06383" lon="3.56287">
        <ele>368.17</ele>
        <time>2013-03-31T11:57:52Z</time>
      </trkpt>
      <trkpt lat="46.06401" lon="3.56268">
        <ele>367.12</ele>
        <time>2013-03-31T11:57:57Z</time>
      </trkpt>
      <trkpt lat="46.06417" lon="3.56251">
        <ele>366.69</ele>
        <time>2013-03-31T11:58:02Z</time>
      </trkpt>
      <trkpt lat="46.06434" lon="3.56236">
        <ele>366.59</ele>
        <time>2013-03-31T11:58:07Z</time>
      </trkpt>
      <trkpt lat="46.06452" lon="3.56219">
        <ele>366.56</ele>
        <time>2013-03-31T11:58:12Z</time>
      </trkpt>
      <trkpt lat="46.06468" lon="3.56204">
        <ele>366.56</ele>
        <time>2013-03-31T11:58:16Z</time>
      </trkpt>
      <trkpt lat="46.06484" lon="3.56187">
        <ele>366.12</ele>
        <time>2013-03-31T11:58:21Z</time>
      </trkpt>
      <trkpt lat="46.06498" lon="3.56167">
        <ele>365</ele>
        <time>2013-03-31T11:58:26Z</time>
      </trkpt>
      <trkpt lat="46.06512" lon="3.5615">
        <ele>362.89</ele>
        <time>2013-03-31T11:58:30Z</time>
      </trkpt>
      <trkpt lat="46.06528" lon="3.56135">
        <ele>361.87</ele>
        <time>2013-03-31T11:58:35Z</time>
      </trkpt>
      <trkpt lat="46.06537" lon="3.56109">
        <ele>361.6</ele>
        <time>2013-03-31T11:58:42Z</time>
      </trkpt>
      <trkpt lat="46.06546" lon="3.56084">
        <ele>361.56</ele>
        <time>2013-03-31T11:58:50Z</time>
      </trkpt>
      <trkpt lat="46.06562" lon="3.56069">
        <ele>361.55</ele>
        <time>2013-03-31T11:59:00Z</time>
      </trkpt>
      <trkpt lat="46.06582" lon="3.56066">
        <ele>363.45</ele>
        <time>2013-03-31T11:59:10Z</time>
      </trkpt>
      <trkpt lat="46.06593" lon="3.56043">
        <ele>364.72</ele>
        <time>2013-03-31T11:59:19Z</time>
      </trkpt>
      <trkpt lat="46.06593" lon="3.56015">
        <ele>366.89</ele>
        <time>2013-03-31T11:59:31Z</time>
      </trkpt>
      <trkpt lat="46.06572" lon="3.55996">
        <ele>371.85</ele>
        <time>2013-03-31T11:59:56Z</time>
      </trkpt>
      <trkpt lat="46.06548" lon="3.55994">
        <ele>375.01</ele>
        <time>2013-03-31T12:00:13Z</time>
      </trkpt>
      <trkpt lat="46.06532" lon="3.55981">
        <ele>378.19</ele>
        <time>2013-03-31T12:00:23Z</time>
      </trkpt>
      <trkpt lat="46.06521" lon="3.55953">
        <ele>380.97</ele>
        <time>2013-03-31T12:00:34Z</time>
      </trkpt>
      <trkpt lat="46.06514" lon="3.55927">
        <ele>383.08</ele>
        <time>2013-03-31T12:00:45Z</time>
      </trkpt>
      <trkpt lat="46.06502" lon="3.55906">
        <ele>385.86</ele>
        <time>2013-03-31T12:00:59Z</time>
      </trkpt>
      <trkpt lat="46.06486" lon="3.55886">
        <ele>388.26</ele>
        <time>2013-03-31T12:01:13Z</time>
      </trkpt>
      <trkpt lat="46.0647" lon="3.55873">
        <ele>391.41</ele>
        <time>2013-03-31T12:01:28Z</time>
      </trkpt>
      <trkpt lat="46.06456" lon="3.55856">
        <ele>395.14</ele>
        <time>2013-03-31T12:01:46Z</time>
      </trkpt>
      <trkpt lat="46.0644" lon="3.55843">
        <ele>399.1</ele>
        <time>2013-03-31T12:02:04Z</time>
      </trkpt>
      <trkpt lat="46.0643" lon="3.5582">
        <ele>401.42</ele>
        <time>2013-03-31T12:02:18Z</time>
      </trkpt>
      <trkpt lat="46.06426" lon="3.55794">
        <ele>402.52</ele>
        <time>2013-03-31T12:02:32Z</time>
      </trkpt>
      <trkpt lat="46.06423" lon="3.55766">
        <ele>403.51</ele>
        <time>2013-03-31T12:02:44Z</time>
      </trkpt>
      <trkpt lat="46.06421" lon="3.55738">
        <ele>404.13</ele>
        <time>2013-03-31T12:02:57Z</time>
      </trkpt>
      <trkpt lat="46.06405" lon="3.55723">
        <ele>413.77</ele>
        <time>2013-03-31T12:05:49Z</time>
      </trkpt>
      <trkpt lat="46.064" lon="3.55695">
        <ele>415.03</ele>
        <time>2013-03-31T12:05:56Z</time>
      </trkpt>
      <trkpt lat="46.06395" lon="3.55669">
        <ele>415.87</ele>
        <time>2013-03-31T12:06:01Z</time>
      </trkpt>
      <trkpt lat="46.06387" lon="3.55642">
        <ele>416.68</ele>
        <time>2013-03-31T12:06:07Z</time>
      </trkpt>
      <trkpt lat="46.06379" lon="3.55618">
        <ele>417.35</ele>
        <time>2013-03-31T12:06:12Z</time>
      </trkpt>
      <trkpt lat="46.06369" lon="3.55592">
        <ele>418.09</ele>
        <time>2013-03-31T12:06:18Z</time>
      </trkpt>
      <trkpt lat="46.06357" lon="3.55571">
        <ele>418.49</ele>
        <time>2013-03-31T12:06:25Z</time>
      </trkpt>
      <trkpt lat="46.06342" lon="3.55556">
        <ele>419.23</ele>
        <time>2013-03-31T12:06:32Z</time>
      </trkpt>
      <trkpt lat="46.06326" lon="3.55543">
        <ele>419.76</ele>
        <time>2013-03-31T12:06:39Z</time>
      </trkpt>
      <trkpt lat="46.0631" lon="3.55526">
        <ele>420.41</ele>
        <time>2013-03-31T12:06:45Z</time>
      </trkpt>
      <trkpt lat="46.06294" lon="3.55513">
        <ele>421.21</ele>
        <time>2013-03-31T12:06:51Z</time>
      </trkpt>
      <trkpt lat="46.06277" lon="3.55498">
        <ele>422.07</ele>
        <time>2013-03-31T12:06:57Z</time>
      </trkpt>
      <trkpt lat="46.06259" lon="3.55479">
        <ele>423.05</ele>
        <time>2013-03-31T12:07:03Z</time>
      </trkpt>
      <trkpt lat="46.06244" lon="3.55464">
        <ele>423.87</ele>
        <time>2013-03-31T12:07:08Z</time>
      </trkpt>
      <trkpt lat="46.06229" lon="3.55446">
        <ele>424.39</ele>
        <time>2013-03-31T12:07:13Z</time>
      </trkpt>
      <trkpt lat="46.06214" lon="3.55429">
        <ele>425.28</ele>
        <time>2013-03-31T12:07:18Z</time>
      </trkpt>
      <trkpt lat="46.062" lon="3.55408">
        <ele>426.08</ele>
        <time>2013-03-31T12:07:24Z</time>
      </trkpt>
      <trkpt lat="46.06188" lon="3.55388">
        <ele>426.51</ele>
        <time>2013-03-31T12:07:32Z</time>
      </trkpt>
      <trkpt lat="46.06175" lon="3.55369">
        <ele>427.45</ele>
        <time>2013-03-31T12:07:40Z</time>
      </trkpt>
      <trkpt lat="46.06161" lon="3.5535">
        <ele>427.8</ele>
        <time>2013-03-31T12:07:52Z</time>
      </trkpt>
      <trkpt lat="46.06149" lon="3.55328">
        <ele>428.96</ele>
        <time>2013-03-31T12:08:03Z</time>
      </trkpt>
      <trkpt lat="46.06139" lon="3.55305">
        <ele>431.22</ele>
        <time>2013-03-31T12:08:15Z</time>
      </trkpt>
      <trkpt lat="46.06129" lon="3.55281">
        <ele>433.49</ele>
        <time>2013-03-31T12:08:25Z</time>
      </trkpt>
      <trkpt lat="46.06115" lon="3.55264">
        <ele>435.94</ele>
        <time>2013-03-31T12:08:35Z</time>
      </trkpt>
      <trkpt lat="46.061" lon="3.55247">
        <ele>438.14</ele>
        <time>2013-03-31T12:08:46Z</time>
      </trkpt>
      <trkpt lat="46.06084" lon="3.5523">
        <ele>440.26</ele>
        <time>2013-03-31T12:08:58Z</time>
      </trkpt>
      <trkpt lat="46.0607" lon="3.55212">
        <ele>441.9</ele>
        <time>2013-03-31T12:09:08Z</time>
      </trkpt>
      <trkpt lat="46.06057" lon="3.55191">
        <ele>442.74</ele>
        <time>2013-03-31T12:09:16Z</time>
      </trkpt>
      <trkpt lat="46.06045" lon="3.5517">
        <ele>444.64</ele>
        <time>2013-03-31T12:09:28Z</time>
      </trkpt>
      <trkpt lat="46.06034" lon="3.55146">
        <ele>447.46</ele>
        <time>2013-03-31T12:09:40Z</time>
      </trkpt>
      <trkpt lat="46.06026" lon="3.5512">
        <ele>448.99</ele>
        <time>2013-03-31T12:09:47Z</time>
      </trkpt>
      <trkpt lat="46.06018" lon="3.55092">
        <ele>449.91</ele>
        <time>2013-03-31T12:09:54Z</time>
      </trkpt>
      <trkpt lat="46.06015" lon="3.55067">
        <ele>451.67</ele>
        <time>2013-03-31T12:10:01Z</time>
      </trkpt>
      <trkpt lat="46.06012" lon="3.55041">
        <ele>454.59</ele>
        <time>2013-03-31T12:10:10Z</time>
      </trkpt>
      <trkpt lat="46.06005" lon="3.55015">
        <ele>456.62</ele>
        <time>2013-03-31T12:10:17Z</time>
      </trkpt>
      <trkpt lat="46.05997" lon="3.54991">
        <ele>458.47</ele>
        <time>2013-03-31T12:10:25Z</time>
      </trkpt>
      <trkpt lat="46.05982" lon="3.54976">
        <ele>460.7</ele>
        <time>2013-03-31T12:10:33Z</time>
      </trkpt>
      <trkpt lat="46.05963" lon="3.54966">
        <ele>463.83</ele>
        <time>2013-03-31T12:10:43Z</time>
      </trkpt>
      <trkpt lat="46.05945" lon="3.54959">
        <ele>466.92</ele>
        <time>2013-03-31T12:10:54Z</time>
      </trkpt>
      <trkpt lat="46.05926" lon="3.54955">
        <ele>469.13</ele>
        <time>2013-03-31T12:11:04Z</time>
      </trkpt>
      <trkpt lat="46.05906" lon="3.54951">
        <ele>471.46</ele>
        <time>2013-03-31T12:11:13Z</time>
      </trkpt>
      <trkpt lat="46.05887" lon="3.54951">
        <ele>473.46</ele>
        <time>2013-03-31T12:11:21Z</time>
      </trkpt>
      <trkpt lat="46.05869" lon="3.54946">
        <ele>475.21</ele>
        <time>2013-03-31T12:11:29Z</time>
      </trkpt>
      <trkpt lat="46.05851" lon="3.54938">
        <ele>476.95</ele>
        <time>2013-03-31T12:11:36Z</time>
      </trkpt>
      <trkpt lat="46.05835" lon="3.54925">
        <ele>478.92</ele>
        <time>2013-03-31T12:11:43Z</time>
      </trkpt>
      <trkpt lat="46.05822" lon="3.54906">
        <ele>480.73</ele>
        <time>2013-03-31T12:11:50Z</time>
      </trkpt>
      <trkpt lat="46.05811" lon="3.54884">
        <ele>482.73</ele>
        <time>2013-03-31T12:11:58Z</time>
      </trkpt>
      <trkpt lat="46.058" lon="3.54861">
        <ele>484.81</ele>
        <time>2013-03-31T12:12:08Z</time>
      </trkpt>
      <trkpt lat="46.05791" lon="3.54837">
        <ele>486.33</ele>
        <time>2013-03-31T12:12:18Z</time>
      </trkpt>
      <trkpt lat="46.05785" lon="3.54811">
        <ele>487.49</ele>
        <time>2013-03-31T12:12:30Z</time>
      </trkpt>
      <trkpt lat="46.05776" lon="3.54788">
        <ele>489.92</ele>
        <time>2013-03-31T12:13:42Z</time>
      </trkpt>
      <trkpt lat="46.0576" lon="3.54775">
        <ele>491.19</ele>
        <time>2013-03-31T12:13:51Z</time>
      </trkpt>
      <trkpt lat="46.05741" lon="3.54775">
        <ele>492.35</ele>
        <time>2013-03-31T12:14:01Z</time>
      </trkpt>
      <trkpt lat="46.05722" lon="3.54777">
        <ele>493.44</ele>
        <time>2013-03-31T12:14:11Z</time>
      </trkpt>
      <trkpt lat="46.05704" lon="3.54779">
        <ele>494.45</ele>
        <time>2013-03-31T12:14:21Z</time>
      </trkpt>
      <trkpt lat="46.05684" lon="3.54783">
        <ele>495.91</ele>
        <time>2013-03-31T12:14:31Z</time>
      </trkpt>
      <trkpt lat="46.05666" lon="3.54783">
        <ele>497.58</ele>
        <time>2013-03-31T12:14:40Z</time>
      </trkpt>
      <trkpt lat="46.05647" lon="3.54783">
        <ele>499.03</ele>
        <time>2013-03-31T12:14:48Z</time>
      </trkpt>
      <trkpt lat="46.05628" lon="3.54783">
        <ele>500.32</ele>
        <time>2013-03-31T12:14:56Z</time>
      </trkpt>
      <trkpt lat="46.05608" lon="3.54783">
        <ele>501.68</ele>
        <time>2013-03-31T12:15:04Z</time>
      </trkpt>
      <trkpt lat="46.05589" lon="3.54781">
        <ele>503.17</ele>
        <time>2013-03-31T12:15:13Z</time>
      </trkpt>
      <trkpt lat="46.05571" lon="3.54781">
        <ele>504.47</ele>
        <time>2013-03-31T12:15:25Z</time>
      </trkpt>
      <trkpt lat="46.05552" lon="3.54779">
        <ele>505.23</ele>
        <time>2013-03-31T12:15:35Z</time>
      </trkpt>
      <trkpt lat="46.05534" lon="3.54779">
        <ele>505.54</ele>
        <time>2013-03-31T12:15:46Z</time>
      </trkpt>
      <trkpt lat="46.05516" lon="3.54779">
        <ele>506.37</ele>
        <time>2013-03-31T12:15:58Z</time>
      </trkpt>
      <trkpt lat="46.05498" lon="3.54781">
        <ele>507.36</ele>
        <time>2013-03-31T12:16:08Z</time>
      </trkpt>
      <trkpt lat="46.05478" lon="3.54777">
        <ele>509.56</ele>
        <time>2013-03-31T12:16:18Z</time>
      </trkpt>
      <trkpt lat="46.0546" lon="3.54779">
        <ele>512.33</ele>
        <time>2013-03-31T12:16:34Z</time>
      </trkpt>
      <trkpt lat="46.05442" lon="3.54783">
        <ele>515.08</ele>
        <time>2013-03-31T12:16:51Z</time>
      </trkpt>
      <trkpt lat="46.05423" lon="3.54777">
        <ele>516.36</ele>
        <time>2013-03-31T12:17:04Z</time>
      </trkpt>
      <trkpt lat="46.05403" lon="3.5477">
        <ele>518.76</ele>
        <time>2013-03-31T12:17:15Z</time>
      </trkpt>
      <trkpt lat="46.05384" lon="3.54766">
        <ele>521.7</ele>
        <time>2013-03-31T12:17:26Z</time>
      </trkpt>
      <trkpt lat="46.05365" lon="3.5476">
        <ele>524.04</ele>
        <time>2013-03-31T12:17:35Z</time>
      </trkpt>
      <trkpt lat="46.05346" lon="3.54749">
        <ele>526.84</ele>
        <time>2013-03-31T12:17:44Z</time>
      </trkpt>
      <trkpt lat="46.05326" lon="3.54743">
        <ele>529.08</ele>
        <time>2013-03-31T12:17:53Z</time>
      </trkpt>
      <trkpt lat="46.05308" lon="3.54734">
        <ele>531.13</ele>
        <time>2013-03-31T12:18:02Z</time>
      </trkpt>
      <trkpt lat="46.0529" lon="3.5473">
        <ele>533.26</ele>
        <time>2013-03-31T12:18:13Z</time>
      </trkpt>
      <trkpt lat="46.05271" lon="3.54728">
        <ele>535.16</ele>
        <time>2013-03-31T12:18:23Z</time>
      </trkpt>
      <trkpt lat="46.05252" lon="3.54723">
        <ele>537.24</ele>
        <time>2013-03-31T12:18:34Z</time>
      </trkpt>
      <trkpt lat="46.05234" lon="3.54719">
        <ele>539.49</ele>
        <time>2013-03-31T12:18:44Z</time>
      </trkpt>
      <trkpt lat="46.05216" lon="3.5471">
        <ele>542.04</ele>
        <time>2013-03-31T12:18:54Z</time>
      </trkpt>
      <trkpt lat="46.05197" lon="3.54702">
        <ele>545.2</ele>
        <time>2013-03-31T12:19:03Z</time>
      </trkpt>
      <trkpt lat="46.0518" lon="3.54687">
        <ele>547.43</ele>
        <time>2013-03-31T12:19:11Z</time>
      </trkpt>
      <trkpt lat="46.05163" lon="3.54676">
        <ele>549.54</ele>
        <time>2013-03-31T12:19:20Z</time>
      </trkpt>
      <trkpt lat="46.05146" lon="3.54667">
        <ele>551.34</ele>
        <time>2013-03-31T12:19:32Z</time>
      </trkpt>
      <trkpt lat="46.05128" lon="3.54657">
        <ele>552.49</ele>
        <time>2013-03-31T12:19:44Z</time>
      </trkpt>
      <trkpt lat="46.05108" lon="3.5465">
        <ele>552.59</ele>
        <time>2013-03-31T12:19:54Z</time>
      </trkpt>
      <trkpt lat="46.05089" lon="3.54644">
        <ele>552.56</ele>
        <time>2013-03-31T12:20:02Z</time>
      </trkpt>
      <trkpt lat="46.0507" lon="3.5464">
        <ele>552.8</ele>
        <time>2013-03-31T12:20:11Z</time>
      </trkpt>
      <trkpt lat="46.05051" lon="3.54637">
        <ele>554.07</ele>
        <time>2013-03-31T12:20:20Z</time>
      </trkpt>
      <trkpt lat="46.05031" lon="3.54629">
        <ele>555.69</ele>
        <time>2013-03-31T12:20:27Z</time>
      </trkpt>
      <trkpt lat="46.05012" lon="3.54625">
        <ele>557.73</ele>
        <time>2013-03-31T12:20:35Z</time>
      </trkpt>
      <trkpt lat="46.04993" lon="3.54616">
        <ele>559.79</ele>
        <time>2013-03-31T12:20:44Z</time>
      </trkpt>
      <trkpt lat="46.04977" lon="3.54603">
        <ele>561.55</ele>
        <time>2013-03-31T12:21:10Z</time>
      </trkpt>
      <trkpt lat="46.0496" lon="3.5459">
        <ele>564.32</ele>
        <time>2013-03-31T12:23:39Z</time>
      </trkpt>
      <trkpt lat="46.04946" lon="3.54573">
        <ele>564.53</ele>
        <time>2013-03-31T12:23:47Z</time>
      </trkpt>
      <trkpt lat="46.0493" lon="3.54558">
        <ele>563.97</ele>
        <time>2013-03-31T12:23:53Z</time>
      </trkpt>
      <trkpt lat="46.04914" lon="3.54539">
        <ele>563.61</ele>
        <time>2013-03-31T12:24:00Z</time>
      </trkpt>
      <trkpt lat="46.049" lon="3.54519">
        <ele>563.56</ele>
        <time>2013-03-31T12:24:07Z</time>
      </trkpt>
      <trkpt lat="46.04885" lon="3.545">
        <ele>564.38</ele>
        <time>2013-03-31T12:24:14Z</time>
      </trkpt>
      <trkpt lat="46.0487" lon="3.54483">
        <ele>564.52</ele>
        <time>2013-03-31T12:24:20Z</time>
      </trkpt>
      <trkpt lat="46.04855" lon="3.54466">
        <ele>564.55</ele>
        <time>2013-03-31T12:24:27Z</time>
      </trkpt>
      <trkpt lat="46.0484" lon="3.54449">
        <ele>564.55</ele>
        <time>2013-03-31T12:24:35Z</time>
      </trkpt>
      <trkpt lat="46.04826" lon="3.54431">
        <ele>564.3</ele>
        <time>2013-03-31T12:24:41Z</time>
      </trkpt>
      <trkpt lat="46.04811" lon="3.54408">
        <ele>563.69</ele>
        <time>2013-03-31T12:24:47Z</time>
      </trkpt>
      <trkpt lat="46.04796" lon="3.54388">
        <ele>563.58</ele>
        <time>2013-03-31T12:24:53Z</time>
      </trkpt>
      <trkpt lat="46.04781" lon="3.54369">
        <ele>563.31</ele>
        <time>2013-03-31T12:25:00Z</time>
      </trkpt>
      <trkpt lat="46.04769" lon="3.54348">
        <ele>562.65</ele>
        <time>2013-03-31T12:25:07Z</time>
      </trkpt>
      <trkpt lat="46.04764" lon="3.5432">
        <ele>562.56</ele>
        <time>2013-03-31T12:25:16Z</time>
      </trkpt>
      <trkpt lat="46.04765" lon="3.5429">
        <ele>562.55</ele>
        <time>2013-03-31T12:25:23Z</time>
      </trkpt>
      <trkpt lat="46.0476" lon="3.54262">
        <ele>562.55</ele>
        <time>2013-03-31T12:25:29Z</time>
      </trkpt>
      <trkpt lat="46.04753" lon="3.54234">
        <ele>562.12</ele>
        <time>2013-03-31T12:25:33Z</time>
      </trkpt>
      <trkpt lat="46.04746" lon="3.54204">
        <ele>561.48</ele>
        <time>2013-03-31T12:25:37Z</time>
      </trkpt>
      <trkpt lat="46.04741" lon="3.54178">
        <ele>560.69</ele>
        <time>2013-03-31T12:25:40Z</time>
      </trkpt>
      <trkpt lat="46.04738" lon="3.54152">
        <ele>559.6</ele>
        <time>2013-03-31T12:25:43Z</time>
      </trkpt>
      <trkpt lat="46.04736" lon="3.54125">
        <ele>557.35</ele>
        <time>2013-03-31T12:25:48Z</time>
      </trkpt>
      <trkpt lat="46.0473" lon="3.54092">
        <ele>556.17</ele>
        <time>2013-03-31T12:25:53Z</time>
      </trkpt>
      <trkpt lat="46.04721" lon="3.5406">
        <ele>555.75</ele>
        <time>2013-03-31T12:25:57Z</time>
      </trkpt>
      <trkpt lat="46.04711" lon="3.54034">
        <ele>555.63</ele>
        <time>2013-03-31T12:26:00Z</time>
      </trkpt>
      <trkpt lat="46.04698" lon="3.54011">
        <ele>555.59</ele>
        <time>2013-03-31T12:26:03Z</time>
      </trkpt>
      <trkpt lat="46.04687" lon="3.53981">
        <ele>555.57</ele>
        <time>2013-03-31T12:26:06Z</time>
      </trkpt>
      <trkpt lat="46.04676" lon="3.53949">
        <ele>555.23</ele>
        <time>2013-03-31T12:26:09Z</time>
      </trkpt>
      <trkpt lat="46.04663" lon="3.53916">
        <ele>555.42</ele>
        <time>2013-03-31T12:26:12Z</time>
      </trkpt>
      <trkpt lat="46.04649" lon="3.53889">
        <ele>555.75</ele>
        <time>2013-03-31T12:26:15Z</time>
      </trkpt>
      <trkpt lat="46.04633" lon="3.53865">
        <ele>556.21</ele>
        <time>2013-03-31T12:26:18Z</time>
      </trkpt>
      <trkpt lat="46.04618" lon="3.53841">
        <ele>556.41</ele>
        <time>2013-03-31T12:26:21Z</time>
      </trkpt>
      <trkpt lat="46.04604" lon="3.53818">
        <ele>556.49</ele>
        <time>2013-03-31T12:26:24Z</time>
      </trkpt>
      <trkpt lat="46.0459" lon="3.53794">
        <ele>556.53</ele>
        <time>2013-03-31T12:26:27Z</time>
      </trkpt>
      <trkpt lat="46.04576" lon="3.53768">
        <ele>556.54</ele>
        <time>2013-03-31T12:26:30Z</time>
      </trkpt>
      <trkpt lat="46.04561" lon="3.53749">
        <ele>556.55</ele>
        <time>2013-03-31T12:26:33Z</time>
      </trkpt>
      <trkpt lat="46.04545" lon="3.5373">
        <ele>556.55</ele>
        <time>2013-03-31T12:26:36Z</time>
      </trkpt>
      <trkpt lat="46.04529" lon="3.53715">
        <ele>556.11</ele>
        <time>2013-03-31T12:26:39Z</time>
      </trkpt>
      <trkpt lat="46.04511" lon="3.53695">
        <ele>555.79</ele>
        <time>2013-03-31T12:26:42Z</time>
      </trkpt>
      <trkpt lat="46.04493" lon="3.53676">
        <ele>555.65</ele>
        <time>2013-03-31T12:26:45Z</time>
      </trkpt>
      <trkpt lat="46.04476" lon="3.53655">
        <ele>555.6</ele>
        <time>2013-03-31T12:26:48Z</time>
      </trkpt>
      <trkpt lat="46.04463" lon="3.53635">
        <ele>555.14</ele>
        <time>2013-03-31T12:26:50Z</time>
      </trkpt>
      <trkpt lat="46.04447" lon="3.53616">
        <ele>554.63</ele>
        <time>2013-03-31T12:26:52Z</time>
      </trkpt>
      <trkpt lat="46.04428" lon="3.53597">
        <ele>553.91</ele>
        <time>2013-03-31T12:26:54Z</time>
      </trkpt>
      <trkpt lat="46.04409" lon="3.53577">
        <ele>553.32</ele>
        <time>2013-03-31T12:26:56Z</time>
      </trkpt>
      <trkpt lat="46.04388" lon="3.5356">
        <ele>552.54</ele>
        <time>2013-03-31T12:26:58Z</time>
      </trkpt>
      <trkpt lat="46.04369" lon="3.53545">
        <ele>552.11</ele>
        <time>2013-03-31T12:27:00Z</time>
      </trkpt>
      <trkpt lat="46.04348" lon="3.5353">
        <ele>551.87</ele>
        <time>2013-03-31T12:27:02Z</time>
      </trkpt>
      <trkpt lat="46.04328" lon="3.53519">
        <ele>551.29</ele>
        <time>2013-03-31T12:27:04Z</time>
      </trkpt>
      <trkpt lat="46.04309" lon="3.53509">
        <ele>550.72</ele>
        <time>2013-03-31T12:27:06Z</time>
      </trkpt>
      <trkpt lat="46.04289" lon="3.53498">
        <ele>549.52</ele>
        <time>2013-03-31T12:27:08Z</time>
      </trkpt>
      <trkpt lat="46.04267" lon="3.53498">
        <ele>547.97</ele>
        <time>2013-03-31T12:27:10Z</time>
      </trkpt>
      <trkpt lat="46.04242" lon="3.53507">
        <ele>546.48</ele>
        <time>2013-03-31T12:27:12Z</time>
      </trkpt>
      <trkpt lat="46.04223" lon="3.53511">
        <ele>544.95</ele>
        <time>2013-03-31T12:27:14Z</time>
      </trkpt>
      <trkpt lat="46.04202" lon="3.53515">
        <ele>542.88</ele>
        <time>2013-03-31T12:27:17Z</time>
      </trkpt>
      <trkpt lat="46.04187" lon="3.53532">
        <ele>540.03</ele>
        <time>2013-03-31T12:27:21Z</time>
      </trkpt>
      <trkpt lat="46.04171" lon="3.53552">
        <ele>536.95</ele>
        <time>2013-03-31T12:27:26Z</time>
      </trkpt>
      <trkpt lat="46.04157" lon="3.53573">
        <ele>532.23</ele>
        <time>2013-03-31T12:27:31Z</time>
      </trkpt>
      <trkpt lat="46.04144" lon="3.53595">
        <ele>530.51</ele>
        <time>2013-03-31T12:27:36Z</time>
      </trkpt>
      <trkpt lat="46.0413" lon="3.5362">
        <ele>526.57</ele>
        <time>2013-03-31T12:27:41Z</time>
      </trkpt>
      <trkpt lat="46.04116" lon="3.5364">
        <ele>522.56</ele>
        <time>2013-03-31T12:27:45Z</time>
      </trkpt>
      <trkpt lat="46.04095" lon="3.53652">
        <ele>520.52</ele>
        <time>2013-03-31T12:27:50Z</time>
      </trkpt>
      <trkpt lat="46.04079" lon="3.53665">
        <ele>521.12</ele>
        <time>2013-03-31T12:27:54Z</time>
      </trkpt>
      <trkpt lat="46.04059" lon="3.53676">
        <ele>522.24</ele>
        <time>2013-03-31T12:28:00Z</time>
      </trkpt>
      <trkpt lat="46.0404" lon="3.53674">
        <ele>522.73</ele>
        <time>2013-03-31T12:28:05Z</time>
      </trkpt>
      <trkpt lat="46.04019" lon="3.53674">
        <ele>523.36</ele>
        <time>2013-03-31T12:28:10Z</time>
      </trkpt>
      <trkpt lat="46.04" lon="3.53672">
        <ele>524.78</ele>
        <time>2013-03-31T12:28:16Z</time>
      </trkpt>
      <trkpt lat="46.0398" lon="3.53663">
        <ele>526.13</ele>
        <time>2013-03-31T12:28:23Z</time>
      </trkpt>
      <trkpt lat="46.03961" lon="3.53659">
        <ele>527.55</ele>
        <time>2013-03-31T12:28:29Z</time>
      </trkpt>
      <trkpt lat="46.03941" lon="3.53652">
        <ele>529.1</ele>
        <time>2013-03-31T12:28:36Z</time>
      </trkpt>
      <trkpt lat="46.03923" lon="3.53646">
        <ele>530.24</ele>
        <time>2013-03-31T12:28:42Z</time>
      </trkpt>
      <trkpt lat="46.03904" lon="3.5364">
        <ele>531.76</ele>
        <time>2013-03-31T12:28:48Z</time>
      </trkpt>
      <trkpt lat="46.03895" lon="3.53616">
        <ele>533.73</ele>
        <time>2013-03-31T12:28:56Z</time>
      </trkpt>
      <trkpt lat="46.03902" lon="3.53592">
        <ele>535.54</ele>
        <time>2013-03-31T12:29:04Z</time>
      </trkpt>
      <trkpt lat="46.0391" lon="3.53569">
        <ele>536.86</ele>
        <time>2013-03-31T12:29:11Z</time>
      </trkpt>
      <trkpt lat="46.03916" lon="3.53543">
        <ele>537.43</ele>
        <time>2013-03-31T12:29:17Z</time>
      </trkpt>
      <trkpt lat="46.03922" lon="3.53517">
        <ele>538.29</ele>
        <time>2013-03-31T12:29:22Z</time>
      </trkpt>
      <trkpt lat="46.03927" lon="3.53487">
        <ele>540.44</ele>
        <time>2013-03-31T12:29:27Z</time>
      </trkpt>
      <trkpt lat="46.03931" lon="3.53462">
        <ele>542.46</ele>
        <time>2013-03-31T12:29:31Z</time>
      </trkpt>
      <trkpt lat="46.03938" lon="3.53431">
        <ele>543.98</ele>
        <time>2013-03-31T12:29:36Z</time>
      </trkpt>
      <trkpt lat="46.03944" lon="3.53401">
        <ele>544.42</ele>
        <time>2013-03-31T12:29:41Z</time>
      </trkpt>
      <trkpt lat="46.0395" lon="3.53376">
        <ele>544.52</ele>
        <time>2013-03-31T12:29:46Z</time>
      </trkpt>
      <trkpt lat="46.03954" lon="3.5335">
        <ele>544.54</ele>
        <time>2013-03-31T12:29:50Z</time>
      </trkpt>
      <trkpt lat="46.03957" lon="3.53324">
        <ele>543.97</ele>
        <time>2013-03-31T12:29:54Z</time>
      </trkpt>
      <trkpt lat="46.03959" lon="3.53296">
        <ele>543.69</ele>
        <time>2013-03-31T12:29:58Z</time>
      </trkpt>
      <trkpt lat="46.03959" lon="3.53266">
        <ele>543.59</ele>
        <time>2013-03-31T12:30:02Z</time>
      </trkpt>
      <trkpt lat="46.03957" lon="3.53232">
        <ele>544</ele>
        <time>2013-03-31T12:30:06Z</time>
      </trkpt>
      <trkpt lat="46.03955" lon="3.53204">
        <ele>544.32</ele>
        <time>2013-03-31T12:30:09Z</time>
      </trkpt>
      <trkpt lat="46.03956" lon="3.53174">
        <ele>544.48</ele>
        <time>2013-03-31T12:30:13Z</time>
      </trkpt>
      <trkpt lat="46.03966" lon="3.53146">
        <ele>544.53</ele>
        <time>2013-03-31T12:30:17Z</time>
      </trkpt>
      <trkpt lat="46.0398" lon="3.53122">
        <ele>545.23</ele>
        <time>2013-03-31T12:30:21Z</time>
      </trkpt>
      <trkpt lat="46.03995" lon="3.53099">
        <ele>545.45</ele>
        <time>2013-03-31T12:30:25Z</time>
      </trkpt>
      <trkpt lat="46.04005" lon="3.53069">
        <ele>545.52</ele>
        <time>2013-03-31T12:30:29Z</time>
      </trkpt>
      <trkpt lat="46.04012" lon="3.53039">
        <ele>545.54</ele>
        <time>2013-03-31T12:30:33Z</time>
      </trkpt>
      <trkpt lat="46.04014" lon="3.53007">
        <ele>545.55</ele>
        <time>2013-03-31T12:30:37Z</time>
      </trkpt>
      <trkpt lat="46.04016" lon="3.52972">
        <ele>544.87</ele>
        <time>2013-03-31T12:30:41Z</time>
      </trkpt>
      <trkpt lat="46.04012" lon="3.52944">
        <ele>544.05</ele>
        <time>2013-03-31T12:30:46Z</time>
      </trkpt>
      <trkpt lat="46.03994" lon="3.52942">
        <ele>542.99</ele>
        <time>2013-03-31T12:30:51Z</time>
      </trkpt>
      <trkpt lat="46.03973" lon="3.52938">
        <ele>542.19</ele>
        <time>2013-03-31T12:30:57Z</time>
      </trkpt>
      <trkpt lat="46.03954" lon="3.52936">
        <ele>541.45</ele>
        <time>2013-03-31T12:31:02Z</time>
      </trkpt>
      <trkpt lat="46.03936" lon="3.52936">
        <ele>540.59</ele>
        <time>2013-03-31T12:31:06Z</time>
      </trkpt>
      <trkpt lat="46.03917" lon="3.52938">
        <ele>539.88</ele>
        <time>2013-03-31T12:31:10Z</time>
      </trkpt>
      <trkpt lat="46.03896" lon="3.52947">
        <ele>539.63</ele>
        <time>2013-03-31T12:31:15Z</time>
      </trkpt>
      <trkpt lat="46.03879" lon="3.52955">
        <ele>539.58</ele>
        <time>2013-03-31T12:31:19Z</time>
      </trkpt>
      <trkpt lat="46.03862" lon="3.52966">
        <ele>539.56</ele>
        <time>2013-03-31T12:31:23Z</time>
      </trkpt>
      <trkpt lat="46.03841" lon="3.52979">
        <ele>539.56</ele>
        <time>2013-03-31T12:31:27Z</time>
      </trkpt>
      <trkpt lat="46.03819" lon="3.52979">
        <ele>539.55</ele>
        <time>2013-03-31T12:31:30Z</time>
      </trkpt>
      <trkpt lat="46.03799" lon="3.52964">
        <ele>539.12</ele>
        <time>2013-03-31T12:31:33Z</time>
      </trkpt>
      <trkpt lat="46.03783" lon="3.52944">
        <ele>538.79</ele>
        <time>2013-03-31T12:31:36Z</time>
      </trkpt>
      <trkpt lat="46.03767" lon="3.52925">
        <ele>539.09</ele>
        <time>2013-03-31T12:31:39Z</time>
      </trkpt>
      <trkpt lat="46.03752" lon="3.52908">
        <ele>539.36</ele>
        <time>2013-03-31T12:31:42Z</time>
      </trkpt>
      <trkpt lat="46.03737" lon="3.52889">
        <ele>539.47</ele>
        <time>2013-03-31T12:31:45Z</time>
      </trkpt>
      <trkpt lat="46.03722" lon="3.52869">
        <ele>539.27</ele>
        <time>2013-03-31T12:31:48Z</time>
      </trkpt>
      <trkpt lat="46.03709" lon="3.52846">
        <ele>538.85</ele>
        <time>2013-03-31T12:31:51Z</time>
      </trkpt>
      <trkpt lat="46.03704" lon="3.5282">
        <ele>538.24</ele>
        <time>2013-03-31T12:31:54Z</time>
      </trkpt>
      <trkpt lat="46.03703" lon="3.52788">
        <ele>537.33</ele>
        <time>2013-03-31T12:31:58Z</time>
      </trkpt>
      <trkpt lat="46.03703" lon="3.52758">
        <ele>536.22</ele>
        <time>2013-03-31T12:32:02Z</time>
      </trkpt>
      <trkpt lat="46.03701" lon="3.5273">
        <ele>536.34</ele>
        <time>2013-03-31T12:32:06Z</time>
      </trkpt>
      <trkpt lat="46.03694" lon="3.527">
        <ele>537.08</ele>
        <time>2013-03-31T12:32:11Z</time>
      </trkpt>
      <trkpt lat="46.03688" lon="3.52674">
        <ele>538.09</ele>
        <time>2013-03-31T12:32:15Z</time>
      </trkpt>
      <trkpt lat="46.03676" lon="3.52653">
        <ele>538.44</ele>
        <time>2013-03-31T12:32:20Z</time>
      </trkpt>
      <trkpt lat="46.03663" lon="3.52633">
        <ele>539.64</ele>
        <time>2013-03-31T12:32:24Z</time>
      </trkpt>
      <trkpt lat="46.03644" lon="3.52618">
        <ele>540.84</ele>
        <time>2013-03-31T12:32:28Z</time>
      </trkpt>
      <trkpt lat="46.03624" lon="3.5261">
        <ele>541.25</ele>
        <time>2013-03-31T12:32:31Z</time>
      </trkpt>
      <trkpt lat="46.03602" lon="3.5261">
        <ele>540.99</ele>
        <time>2013-03-31T12:32:34Z</time>
      </trkpt>
      <trkpt lat="46.03584" lon="3.52612">
        <ele>540.55</ele>
        <time>2013-03-31T12:32:36Z</time>
      </trkpt>
      <trkpt lat="46.03565" lon="3.52614">
        <ele>540.11</ele>
        <time>2013-03-31T12:32:38Z</time>
      </trkpt>
      <trkpt lat="46.03547" lon="3.52616">
        <ele>539.62</ele>
        <time>2013-03-31T12:32:40Z</time>
      </trkpt>
      <trkpt lat="46.03529" lon="3.52618">
        <ele>538.9</ele>
        <time>2013-03-31T12:32:42Z</time>
      </trkpt>
      <trkpt lat="46.03502" lon="3.52625">
        <ele>538.7</ele>
        <time>2013-03-31T12:32:45Z</time>
      </trkpt>
      <trkpt lat="46.03484" lon="3.52633">
        <ele>538.64</ele>
        <time>2013-03-31T12:32:47Z</time>
      </trkpt>
      <trkpt lat="46.03467" lon="3.52644">
        <ele>538.16</ele>
        <time>2013-03-31T12:32:49Z</time>
      </trkpt>
      <trkpt lat="46.03449" lon="3.52655">
        <ele>537.9</ele>
        <time>2013-03-31T12:32:51Z</time>
      </trkpt>
      <trkpt lat="46.03425" lon="3.5267">
        <ele>537.12</ele>
        <time>2013-03-31T12:32:54Z</time>
      </trkpt>
      <trkpt lat="46.034" lon="3.52678">
        <ele>536.35</ele>
        <time>2013-03-31T12:32:57Z</time>
      </trkpt>
      <trkpt lat="46.03382" lon="3.52676">
        <ele>536</ele>
        <time>2013-03-31T12:32:59Z</time>
      </trkpt>
      <trkpt lat="46.03364" lon="3.5268">
        <ele>535.37</ele>
        <time>2013-03-31T12:33:01Z</time>
      </trkpt>
      <trkpt lat="46.03339" lon="3.52693">
        <ele>534.32</ele>
        <time>2013-03-31T12:33:04Z</time>
      </trkpt>
      <trkpt lat="46.03318" lon="3.52715">
        <ele>533.3</ele>
        <time>2013-03-31T12:33:07Z</time>
      </trkpt>
      <trkpt lat="46.03297" lon="3.52728">
        <ele>532.43</ele>
        <time>2013-03-31T12:33:10Z</time>
      </trkpt>
      <trkpt lat="46.03279" lon="3.52721">
        <ele>531.49</ele>
        <time>2013-03-31T12:33:13Z</time>
      </trkpt>
      <trkpt lat="46.0327" lon="3.52695">
        <ele>529.68</ele>
        <time>2013-03-31T12:33:16Z</time>
      </trkpt>
      <trkpt lat="46.03267" lon="3.52668">
        <ele>527.43</ele>
        <time>2013-03-31T12:33:19Z</time>
      </trkpt>
      <trkpt lat="46.03273" lon="3.5264">
        <ele>525.08</ele>
        <time>2013-03-31T12:33:22Z</time>
      </trkpt>
      <trkpt lat="46.03278" lon="3.5261">
        <ele>522.93</ele>
        <time>2013-03-31T12:33:25Z</time>
      </trkpt>
      <trkpt lat="46.03289" lon="3.52588">
        <ele>521.2</ele>
        <time>2013-03-31T12:33:27Z</time>
      </trkpt>
      <trkpt lat="46.03305" lon="3.52571">
        <ele>519.79</ele>
        <time>2013-03-31T12:33:29Z</time>
      </trkpt>
      <trkpt lat="46.0332" lon="3.52554">
        <ele>518.13</ele>
        <time>2013-03-31T12:33:31Z</time>
      </trkpt>
      <trkpt lat="46.03339" lon="3.52547">
        <ele>516.31</ele>
        <time>2013-03-31T12:33:33Z</time>
      </trkpt>
      <trkpt lat="46.03363" lon="3.52543">
        <ele>513.45</ele>
        <time>2013-03-31T12:33:36Z</time>
      </trkpt>
      <trkpt lat="46.03376" lon="3.52522">
        <ele>509.95</ele>
        <time>2013-03-31T12:33:40Z</time>
      </trkpt>
      <trkpt lat="46.03359" lon="3.52504">
        <ele>505.68</ele>
        <time>2013-03-31T12:33:44Z</time>
      </trkpt>
      <trkpt lat="46.03336" lon="3.52504">
        <ele>502.61</ele>
        <time>2013-03-31T12:33:47Z</time>
      </trkpt>
      <trkpt lat="46.03313" lon="3.52502">
        <ele>500.01</ele>
        <time>2013-03-31T12:33:50Z</time>
      </trkpt>
      <trkpt lat="46.03292" lon="3.52498">
        <ele>498.15</ele>
        <time>2013-03-31T12:33:53Z</time>
      </trkpt>
      <trkpt lat="46.03271" lon="3.52489">
        <ele>496.21</ele>
        <time>2013-03-31T12:33:56Z</time>
      </trkpt>
      <trkpt lat="46.03249" lon="3.52483">
        <ele>494.42</ele>
        <time>2013-03-31T12:33:59Z</time>
      </trkpt>
      <trkpt lat="46.03227" lon="3.52489">
        <ele>493.09</ele>
        <time>2013-03-31T12:34:02Z</time>
      </trkpt>
      <trkpt lat="46.03201" lon="3.52487">
        <ele>492.2</ele>
        <time>2013-03-31T12:34:05Z</time>
      </trkpt>
      <trkpt lat="46.03182" lon="3.52483">
        <ele>491.48</ele>
        <time>2013-03-31T12:34:07Z</time>
      </trkpt>
      <trkpt lat="46.03156" lon="3.52477">
        <ele>490.69</ele>
        <time>2013-03-31T12:34:10Z</time>
      </trkpt>
      <trkpt lat="46.0313" lon="3.5247">
        <ele>490.03</ele>
        <time>2013-03-31T12:34:13Z</time>
      </trkpt>
      <trkpt lat="46.03105" lon="3.52459">
        <ele>489.32</ele>
        <time>2013-03-31T12:34:16Z</time>
      </trkpt>
      <trkpt lat="46.03087" lon="3.52453">
        <ele>488.98</ele>
        <time>2013-03-31T12:34:18Z</time>
      </trkpt>
      <trkpt lat="46.03069" lon="3.52449">
        <ele>488.36</ele>
        <time>2013-03-31T12:34:20Z</time>
      </trkpt>
      <trkpt lat="46.03052" lon="3.52436">
        <ele>487.57</ele>
        <time>2013-03-31T12:34:22Z</time>
      </trkpt>
      <trkpt lat="46.03038" lon="3.52419">
        <ele>487.12</ele>
        <time>2013-03-31T12:34:24Z</time>
      </trkpt>
      <trkpt lat="46.03027" lon="3.52384">
        <ele>487.23</ele>
        <time>2013-03-31T12:34:27Z</time>
      </trkpt>
      <trkpt lat="46.03023" lon="3.52346">
        <ele>488</ele>
        <time>2013-03-31T12:34:30Z</time>
      </trkpt>
      <trkpt lat="46.03013" lon="3.52322">
        <ele>488.24</ele>
        <time>2013-03-31T12:34:32Z</time>
      </trkpt>
      <trkpt lat="46.03001" lon="3.52301">
        <ele>488.38</ele>
        <time>2013-03-31T12:34:34Z</time>
      </trkpt>
      <trkpt lat="46.02988" lon="3.52281">
        <ele>488.02</ele>
        <time>2013-03-31T12:34:36Z</time>
      </trkpt>
      <trkpt lat="46.02965" lon="3.52264">
        <ele>487.5</ele>
        <time>2013-03-31T12:34:39Z</time>
      </trkpt>
      <trkpt lat="46.02947" lon="3.52256">
        <ele>486.83</ele>
        <time>2013-03-31T12:34:41Z</time>
      </trkpt>
      <trkpt lat="46.02924" lon="3.52241">
        <ele>484.83</ele>
        <time>2013-03-31T12:34:44Z</time>
      </trkpt>
      <trkpt lat="46.029" lon="3.52223">
        <ele>481.81</ele>
        <time>2013-03-31T12:34:47Z</time>
      </trkpt>
      <trkpt lat="46.02891" lon="3.522">
        <ele>478.91</ele>
        <time>2013-03-31T12:34:50Z</time>
      </trkpt>
      <trkpt lat="46.02898" lon="3.52174">
        <ele>476.97</ele>
        <time>2013-03-31T12:34:53Z</time>
      </trkpt>
      <trkpt lat="46.02907" lon="3.52146">
        <ele>475.57</ele>
        <time>2013-03-31T12:34:56Z</time>
      </trkpt>
      <trkpt lat="46.02916" lon="3.52123">
        <ele>474.44</ele>
        <time>2013-03-31T12:34:58Z</time>
      </trkpt>
      <trkpt lat="46.02929" lon="3.52095">
        <ele>472.66</ele>
        <time>2013-03-31T12:35:01Z</time>
      </trkpt>
      <trkpt lat="46.02909" lon="3.52075">
        <ele>465.88</ele>
        <time>2013-03-31T12:35:07Z</time>
      </trkpt>
      <trkpt lat="46.02885" lon="3.5209">
        <ele>461.86</ele>
        <time>2013-03-31T12:35:10Z</time>
      </trkpt>
      <trkpt lat="46.02863" lon="3.5211">
        <ele>458.11</ele>
        <time>2013-03-31T12:35:13Z</time>
      </trkpt>
      <trkpt lat="46.02844" lon="3.5211">
        <ele>456.11</ele>
        <time>2013-03-31T12:35:15Z</time>
      </trkpt>
      <trkpt lat="46.02821" lon="3.52112">
        <ele>454.06</ele>
        <time>2013-03-31T12:35:18Z</time>
      </trkpt>
      <trkpt lat="46.02803" lon="3.52101">
        <ele>452.5</ele>
        <time>2013-03-31T12:35:21Z</time>
      </trkpt>
      <trkpt lat="46.02794" lon="3.52075">
        <ele>450.55</ele>
        <time>2013-03-31T12:35:24Z</time>
      </trkpt>
      <trkpt lat="46.02789" lon="3.52043">
        <ele>449.39</ele>
        <time>2013-03-31T12:35:27Z</time>
      </trkpt>
      <trkpt lat="46.02783" lon="3.52007">
        <ele>448.47</ele>
        <time>2013-03-31T12:35:30Z</time>
      </trkpt>
      <trkpt lat="46.0277" lon="3.51979">
        <ele>447.94</ele>
        <time>2013-03-31T12:35:33Z</time>
      </trkpt>
      <trkpt lat="46.02764" lon="3.51942">
        <ele>447.72</ele>
        <time>2013-03-31T12:35:36Z</time>
      </trkpt>
      <trkpt lat="46.02759" lon="3.51917">
        <ele>447.21</ele>
        <time>2013-03-31T12:35:38Z</time>
      </trkpt>
      <trkpt lat="46.0275" lon="3.5188">
        <ele>446.83</ele>
        <time>2013-03-31T12:35:41Z</time>
      </trkpt>
      <trkpt lat="46.02748" lon="3.51854">
        <ele>446.46</ele>
        <time>2013-03-31T12:35:43Z</time>
      </trkpt>
      <trkpt lat="46.02749" lon="3.51826">
        <ele>445.93</ele>
        <time>2013-03-31T12:35:46Z</time>
      </trkpt>
      <trkpt lat="46.02735" lon="3.51809">
        <ele>444.94</ele>
        <time>2013-03-31T12:35:52Z</time>
      </trkpt>
      <trkpt lat="46.02714" lon="3.51794">
        <ele>441.21</ele>
        <time>2013-03-31T12:35:56Z</time>
      </trkpt>
      <trkpt lat="46.02695" lon="3.51775">
        <ele>436.76</ele>
        <time>2013-03-31T12:36:00Z</time>
      </trkpt>
      <trkpt lat="46.02678" lon="3.51758">
        <ele>432.87</ele>
        <time>2013-03-31T12:36:04Z</time>
      </trkpt>
      <trkpt lat="46.02663" lon="3.51738">
        <ele>430.14</ele>
        <time>2013-03-31T12:36:10Z</time>
      </trkpt>
      <trkpt lat="46.02649" lon="3.51713">
        <ele>429.16</ele>
        <time>2013-03-31T12:36:14Z</time>
      </trkpt>
      <trkpt lat="46.02637" lon="3.51687">
        <ele>428.23</ele>
        <time>2013-03-31T12:36:17Z</time>
      </trkpt>
      <trkpt lat="46.02623" lon="3.51661">
        <ele>428.09</ele>
        <time>2013-03-31T12:36:20Z</time>
      </trkpt>
      <trkpt lat="46.02614" lon="3.51633">
        <ele>428.36</ele>
        <time>2013-03-31T12:36:23Z</time>
      </trkpt>
      <trkpt lat="46.02606" lon="3.51601">
        <ele>427.45</ele>
        <time>2013-03-31T12:36:26Z</time>
      </trkpt>
      <trkpt lat="46.02599" lon="3.51571">
        <ele>426.5</ele>
        <time>2013-03-31T12:36:29Z</time>
      </trkpt>
      <trkpt lat="46.02591" lon="3.51541">
        <ele>425.95</ele>
        <time>2013-03-31T12:36:32Z</time>
      </trkpt>
      <trkpt lat="46.0259" lon="3.51509">
        <ele>424.89</ele>
        <time>2013-03-31T12:36:35Z</time>
      </trkpt>
      <trkpt lat="46.02588" lon="3.51477">
        <ele>423.29</ele>
        <time>2013-03-31T12:36:38Z</time>
      </trkpt>
      <trkpt lat="46.02581" lon="3.51447">
        <ele>421.85</ele>
        <time>2013-03-31T12:36:41Z</time>
      </trkpt>
      <trkpt lat="46.02563" lon="3.51421">
        <ele>420.08</ele>
        <time>2013-03-31T12:36:44Z</time>
      </trkpt>
      <trkpt lat="46.02545" lon="3.51412">
        <ele>418.76</ele>
        <time>2013-03-31T12:36:47Z</time>
      </trkpt>
      <trkpt lat="46.02532" lon="3.51384">
        <ele>417</ele>
        <time>2013-03-31T12:36:51Z</time>
      </trkpt>
      <trkpt lat="46.02527" lon="3.51359">
        <ele>415.73</ele>
        <time>2013-03-31T12:36:54Z</time>
      </trkpt>
      <trkpt lat="46.02519" lon="3.51331">
        <ele>414.47</ele>
        <time>2013-03-31T12:36:57Z</time>
      </trkpt>
      <trkpt lat="46.02499" lon="3.51318">
        <ele>413.33</ele>
        <time>2013-03-31T12:37:02Z</time>
      </trkpt>
      <trkpt lat="46.02478" lon="3.51318">
        <ele>411.78</ele>
        <time>2013-03-31T12:37:06Z</time>
      </trkpt>
      <trkpt lat="46.02457" lon="3.51307">
        <ele>409.69</ele>
        <time>2013-03-31T12:37:12Z</time>
      </trkpt>
      <trkpt lat="46.02439" lon="3.51288">
        <ele>405.45</ele>
        <time>2013-03-31T12:37:16Z</time>
      </trkpt>
      <trkpt lat="46.02424" lon="3.51269">
        <ele>401.1</ele>
        <time>2013-03-31T12:37:19Z</time>
      </trkpt>
      <trkpt lat="46.02408" lon="3.51254">
        <ele>394.64</ele>
        <time>2013-03-31T12:37:23Z</time>
      </trkpt>
      <trkpt lat="46.02382" lon="3.51234">
        <ele>382.97</ele>
        <time>2013-03-31T12:39:44Z</time>
      </trkpt>
      <trkpt lat="46.02364" lon="3.51226">
        <ele>380.3</ele>
        <time>2013-03-31T12:39:51Z</time>
      </trkpt>
      <trkpt lat="46.02342" lon="3.51219">
        <ele>376.33</ele>
        <time>2013-03-31T12:39:56Z</time>
      </trkpt>
      <trkpt lat="46.02329" lon="3.51238">
        <ele>369.54</ele>
        <time>2013-03-31T12:40:01Z</time>
      </trkpt>
      <trkpt lat="46.02322" lon="3.51264">
        <ele>365.76</ele>
        <time>2013-03-31T12:40:10Z</time>
      </trkpt>
      <trkpt lat="46.02314" lon="3.5129">
        <ele>363.57</ele>
        <time>2013-03-31T12:40:16Z</time>
      </trkpt>
      <trkpt lat="46.02304" lon="3.51326">
        <ele>361.45</ele>
        <time>2013-03-31T12:40:27Z</time>
      </trkpt>
      <trkpt lat="46.02297" lon="3.51354">
        <ele>359.61</ele>
        <time>2013-03-31T12:40:36Z</time>
      </trkpt>
      <trkpt lat="46.02291" lon="3.51382">
        <ele>358.94</ele>
        <time>2013-03-31T12:40:43Z</time>
      </trkpt>
      <trkpt lat="46.02276" lon="3.51408">
        <ele>359.49</ele>
        <time>2013-03-31T12:40:51Z</time>
      </trkpt>
      <trkpt lat="46.02262" lon="3.51432">
        <ele>358.73</ele>
        <time>2013-03-31T12:41:00Z</time>
      </trkpt>
      <trkpt lat="46.02246" lon="3.51451">
        <ele>357.55</ele>
        <time>2013-03-31T12:41:09Z</time>
      </trkpt>
      <trkpt lat="46.02232" lon="3.51472">
        <ele>355.39</ele>
        <time>2013-03-31T12:41:17Z</time>
      </trkpt>
      <trkpt lat="46.0222" lon="3.51496">
        <ele>352.47</ele>
        <time>2013-03-31T12:41:25Z</time>
      </trkpt>
      <trkpt lat="46.02211" lon="3.51522">
        <ele>350.45</ele>
        <time>2013-03-31T12:41:34Z</time>
      </trkpt>
      <trkpt lat="46.0221" lon="3.5155">
        <ele>349.62</ele>
        <time>2013-03-31T12:41:43Z</time>
      </trkpt>
      <trkpt lat="46.02205" lon="3.51575">
        <ele>350.5</ele>
        <time>2013-03-31T12:41:50Z</time>
      </trkpt>
      <trkpt lat="46.02193" lon="3.51601">
        <ele>352.46</ele>
        <time>2013-03-31T12:41:58Z</time>
      </trkpt>
      <trkpt lat="46.02185" lon="3.51627">
        <ele>354.54</ele>
        <time>2013-03-31T12:42:07Z</time>
      </trkpt>
      <trkpt lat="46.02177" lon="3.51657">
        <ele>356.24</ele>
        <time>2013-03-31T12:42:16Z</time>
      </trkpt>
      <trkpt lat="46.02167" lon="3.51687">
        <ele>357.28</ele>
        <time>2013-03-31T12:42:24Z</time>
      </trkpt>
      <trkpt lat="46.02155" lon="3.51715">
        <ele>358.54</ele>
        <time>2013-03-31T12:42:32Z</time>
      </trkpt>
      <trkpt lat="46.02142" lon="3.51736">
        <ele>360.63</ele>
        <time>2013-03-31T12:42:38Z</time>
      </trkpt>
      <trkpt lat="46.02149" lon="3.51764">
        <ele>364.77</ele>
        <time>2013-03-31T12:42:54Z</time>
      </trkpt>
      <trkpt lat="46.02148" lon="3.51792">
        <ele>367.55</ele>
        <time>2013-03-31T12:43:05Z</time>
      </trkpt>
      <trkpt lat="46.0214" lon="3.51818">
        <ele>369.5</ele>
        <time>2013-03-31T12:43:11Z</time>
      </trkpt>
      <trkpt lat="46.02132" lon="3.51846">
        <ele>372.01</ele>
        <time>2013-03-31T12:43:17Z</time>
      </trkpt>
      <trkpt lat="46.02125" lon="3.51869">
        <ele>375.54</ele>
        <time>2013-03-31T12:43:24Z</time>
      </trkpt>
      <trkpt lat="46.02116" lon="3.51897">
        <ele>380.16</ele>
        <time>2013-03-31T12:43:32Z</time>
      </trkpt>
      <trkpt lat="46.02112" lon="3.51925">
        <ele>383.12</ele>
        <time>2013-03-31T12:43:39Z</time>
      </trkpt>
      <trkpt lat="46.02113" lon="3.51955">
        <ele>385.89</ele>
        <time>2013-03-31T12:43:48Z</time>
      </trkpt>
      <trkpt lat="46.02117" lon="3.51981">
        <ele>387.4</ele>
        <time>2013-03-31T12:43:57Z</time>
      </trkpt>
      <trkpt lat="46.02119" lon="3.52011">
        <ele>388.31</ele>
        <time>2013-03-31T12:44:08Z</time>
      </trkpt>
      <trkpt lat="46.02127" lon="3.52035">
        <ele>388.52</ele>
        <time>2013-03-31T12:44:15Z</time>
      </trkpt>
      <trkpt lat="46.02133" lon="3.5206">
        <ele>389.85</ele>
        <time>2013-03-31T12:44:22Z</time>
      </trkpt>
      <trkpt lat="46.02127" lon="3.52086">
        <ele>391.74</ele>
        <time>2013-03-31T12:44:30Z</time>
      </trkpt>
      <trkpt lat="46.02114" lon="3.52105">
        <ele>393.21</ele>
        <time>2013-03-31T12:44:37Z</time>
      </trkpt>
      <trkpt lat="46.02111" lon="3.52131">
        <ele>394.28</ele>
        <time>2013-03-31T12:44:45Z</time>
      </trkpt>
      <trkpt lat="46.02118" lon="3.52155">
        <ele>395.39</ele>
        <time>2013-03-31T12:44:53Z</time>
      </trkpt>
      <trkpt lat="46.0213" lon="3.52178">
        <ele>396.47</ele>
        <time>2013-03-31T12:45:02Z</time>
      </trkpt>
      <trkpt lat="46.02137" lon="3.52206">
        <ele>398.15</ele>
        <time>2013-03-31T12:45:11Z</time>
      </trkpt>
      <trkpt lat="46.02149" lon="3.5223">
        <ele>400.32</ele>
        <time>2013-03-31T12:45:20Z</time>
      </trkpt>
      <trkpt lat="46.02169" lon="3.52236">
        <ele>403.9</ele>
        <time>2013-03-31T12:45:32Z</time>
      </trkpt>
      <trkpt lat="46.02189" lon="3.52241">
        <ele>405.79</ele>
        <time>2013-03-31T12:45:40Z</time>
      </trkpt>
      <trkpt lat="46.02208" lon="3.52249">
        <ele>406.91</ele>
        <time>2013-03-31T12:45:48Z</time>
      </trkpt>
      <trkpt lat="46.02224" lon="3.52262">
        <ele>408.96</ele>
        <time>2013-03-31T12:45:58Z</time>
      </trkpt>
      <trkpt lat="46.02242" lon="3.52275">
        <ele>411.31</ele>
        <time>2013-03-31T12:46:07Z</time>
      </trkpt>
      <trkpt lat="46.02252" lon="3.52298">
        <ele>413.92</ele>
        <time>2013-03-31T12:46:13Z</time>
      </trkpt>
      <trkpt lat="46.0226" lon="3.52324">
        <ele>416.94</ele>
        <time>2013-03-31T12:46:18Z</time>
      </trkpt>
      <trkpt lat="46.0227" lon="3.52348">
        <ele>420.6</ele>
        <time>2013-03-31T12:46:24Z</time>
      </trkpt>
      <trkpt lat="46.02279" lon="3.52371">
        <ele>424.3</ele>
        <time>2013-03-31T12:46:32Z</time>
      </trkpt>
      <trkpt lat="46.02294" lon="3.52389">
        <ele>429.27</ele>
        <time>2013-03-31T12:46:42Z</time>
      </trkpt>
      <trkpt lat="46.02313" lon="3.52395">
        <ele>434.08</ele>
        <time>2013-03-31T12:46:52Z</time>
      </trkpt>
      <trkpt lat="46.02332" lon="3.52397">
        <ele>436.89</ele>
        <time>2013-03-31T12:47:01Z</time>
      </trkpt>
      <trkpt lat="46.02343" lon="3.52419">
        <ele>439.77</ele>
        <time>2013-03-31T12:47:12Z</time>
      </trkpt>
      <trkpt lat="46.02347" lon="3.52447">
        <ele>441.26</ele>
        <time>2013-03-31T12:47:21Z</time>
      </trkpt>
      <trkpt lat="46.02342" lon="3.52472">
        <ele>441.8</ele>
        <time>2013-03-31T12:47:34Z</time>
      </trkpt>
      <trkpt lat="46.02326" lon="3.52485">
        <ele>446.01</ele>
        <time>2013-03-31T12:47:49Z</time>
      </trkpt>
      <trkpt lat="46.02311" lon="3.525">
        <ele>448.91</ele>
        <time>2013-03-31T12:47:59Z</time>
      </trkpt>
      <trkpt lat="46.02301" lon="3.52522">
        <ele>452.21</ele>
        <time>2013-03-31T12:48:14Z</time>
      </trkpt>
      <trkpt lat="46.02308" lon="3.52545">
        <ele>454.5</ele>
        <time>2013-03-31T12:48:30Z</time>
      </trkpt>
      <trkpt lat="46.02323" lon="3.52562">
        <ele>453</ele>
        <time>2013-03-31T12:48:47Z</time>
      </trkpt>
      <trkpt lat="46.02334" lon="3.52584">
        <ele>453.13</ele>
        <time>2013-03-31T12:49:06Z</time>
      </trkpt>
      <trkpt lat="46.02335" lon="3.52612">
        <ele>454.98</ele>
        <time>2013-03-31T12:49:18Z</time>
      </trkpt>
      <trkpt lat="46.02346" lon="3.52633">
        <ele>459.73</ele>
        <time>2013-03-31T12:49:33Z</time>
      </trkpt>
      <trkpt lat="46.02356" lon="3.52655">
        <ele>467.14</ele>
        <time>2013-03-31T12:49:50Z</time>
      </trkpt>
      <trkpt lat="46.02358" lon="3.5268">
        <ele>472.6</ele>
        <time>2013-03-31T12:50:08Z</time>
      </trkpt>
      <trkpt lat="46.02355" lon="3.52706">
        <ele>477.23</ele>
        <time>2013-03-31T12:50:28Z</time>
      </trkpt>
      <trkpt lat="46.02346" lon="3.5273">
        <ele>479.79</ele>
        <time>2013-03-31T12:50:43Z</time>
      </trkpt>
      <trkpt lat="46.02335" lon="3.52751">
        <ele>484.26</ele>
        <time>2013-03-31T12:50:57Z</time>
      </trkpt>
      <trkpt lat="46.02325" lon="3.52775">
        <ele>488.91</ele>
        <time>2013-03-31T12:51:13Z</time>
      </trkpt>
      <trkpt lat="46.0232" lon="3.52801">
        <ele>493.6</ele>
        <time>2013-03-31T12:51:29Z</time>
      </trkpt>
      <trkpt lat="46.02336" lon="3.52813">
        <ele>499.15</ele>
        <time>2013-03-31T12:51:51Z</time>
      </trkpt>
      <trkpt lat="46.02353" lon="3.52824">
        <ele>502.45</ele>
        <time>2013-03-31T12:52:06Z</time>
      </trkpt>
      <trkpt lat="46.0237" lon="3.52833">
        <ele>505.86</ele>
        <time>2013-03-31T12:52:23Z</time>
      </trkpt>
      <trkpt lat="46.02385" lon="3.52848">
        <ele>516.32</ele>
        <time>2013-03-31T13:00:21Z</time>
      </trkpt>
      <trkpt lat="46.02404" lon="3.52852">
        <ele>516.54</ele>
        <time>2013-03-31T13:00:32Z</time>
      </trkpt>
      <trkpt lat="46.02419" lon="3.52871">
        <ele>516.55</ele>
        <time>2013-03-31T13:00:41Z</time>
      </trkpt>
      <trkpt lat="46.02434" lon="3.52889">
        <ele>515.69</ele>
        <time>2013-03-31T13:00:48Z</time>
      </trkpt>
      <trkpt lat="46.02448" lon="3.52912">
        <ele>515.58</ele>
        <time>2013-03-31T13:00:53Z</time>
      </trkpt>
      <trkpt lat="46.0246" lon="3.52936">
        <ele>515.56</ele>
        <time>2013-03-31T13:00:58Z</time>
      </trkpt>
      <trkpt lat="46.0247" lon="3.52959">
        <ele>515.55</ele>
        <time>2013-03-31T13:01:03Z</time>
      </trkpt>
      <trkpt lat="46.02481" lon="3.52983">
        <ele>514.98</ele>
        <time>2013-03-31T13:01:07Z</time>
      </trkpt>
      <trkpt lat="46.02487" lon="3.53013">
        <ele>514.6</ele>
        <time>2013-03-31T13:01:15Z</time>
      </trkpt>
      <trkpt lat="46.02476" lon="3.53037">
        <ele>514.56</ele>
        <time>2013-03-31T13:01:23Z</time>
      </trkpt>
      <trkpt lat="46.02465" lon="3.53062">
        <ele>514.55</ele>
        <time>2013-03-31T13:01:30Z</time>
      </trkpt>
      <trkpt lat="46.02455" lon="3.53088">
        <ele>515.24</ele>
        <time>2013-03-31T13:01:37Z</time>
      </trkpt>
      <trkpt lat="46.02445" lon="3.53118">
        <ele>515.77</ele>
        <time>2013-03-31T13:01:45Z</time>
      </trkpt>
      <trkpt lat="46.02437" lon="3.53144">
        <ele>517.3</ele>
        <time>2013-03-31T13:01:53Z</time>
      </trkpt>
      <trkpt lat="46.02438" lon="3.5318">
        <ele>519.29</ele>
        <time>2013-03-31T13:02:06Z</time>
      </trkpt>
      <trkpt lat="46.02443" lon="3.53206">
        <ele>520.36</ele>
        <time>2013-03-31T13:02:16Z</time>
      </trkpt>
      <trkpt lat="46.02455" lon="3.53228">
        <ele>520.29</ele>
        <time>2013-03-31T13:02:25Z</time>
      </trkpt>
      <trkpt lat="46.02469" lon="3.53249">
        <ele>518.54</ele>
        <time>2013-03-31T13:02:34Z</time>
      </trkpt>
      <trkpt lat="46.02482" lon="3.53271">
        <ele>516.1</ele>
        <time>2013-03-31T13:02:43Z</time>
      </trkpt>
      <trkpt lat="46.02494" lon="3.53292">
        <ele>516.37</ele>
        <time>2013-03-31T13:02:51Z</time>
      </trkpt>
      <trkpt lat="46.02503" lon="3.53316">
        <ele>517.61</ele>
        <time>2013-03-31T13:03:00Z</time>
      </trkpt>
      <trkpt lat="46.02508" lon="3.53346">
        <ele>519.57</ele>
        <time>2013-03-31T13:03:10Z</time>
      </trkpt>
      <trkpt lat="46.02516" lon="3.53374">
        <ele>522.5</ele>
        <time>2013-03-31T13:03:22Z</time>
      </trkpt>
      <trkpt lat="46.02526" lon="3.53397">
        <ele>524.3</ele>
        <time>2013-03-31T13:03:28Z</time>
      </trkpt>
      <trkpt lat="46.02533" lon="3.53423">
        <ele>527</ele>
        <time>2013-03-31T13:03:35Z</time>
      </trkpt>
      <trkpt lat="46.0254" lon="3.53451">
        <ele>530.54</ele>
        <time>2013-03-31T13:03:43Z</time>
      </trkpt>
      <trkpt lat="46.02555" lon="3.53483">
        <ele>536.57</ele>
        <time>2013-03-31T13:03:57Z</time>
      </trkpt>
      <trkpt lat="46.02562" lon="3.53507">
        <ele>540.54</ele>
        <time>2013-03-31T13:04:07Z</time>
      </trkpt>
      <trkpt lat="46.02564" lon="3.53532">
        <ele>542.43</ele>
        <time>2013-03-31T13:04:14Z</time>
      </trkpt>
      <trkpt lat="46.02566" lon="3.53562">
        <ele>544.34</ele>
        <time>2013-03-31T13:04:21Z</time>
      </trkpt>
      <trkpt lat="46.02564" lon="3.5359">
        <ele>545.97</ele>
        <time>2013-03-31T13:04:28Z</time>
      </trkpt>
      <trkpt lat="46.02566" lon="3.53618">
        <ele>547.73</ele>
        <time>2013-03-31T13:04:35Z</time>
      </trkpt>
      <trkpt lat="46.02569" lon="3.53646">
        <ele>549.46</ele>
        <time>2013-03-31T13:04:42Z</time>
      </trkpt>
      <trkpt lat="46.02574" lon="3.53672">
        <ele>551.42</ele>
        <time>2013-03-31T13:04:49Z</time>
      </trkpt>
      <trkpt lat="46.02581" lon="3.53698">
        <ele>553.09</ele>
        <time>2013-03-31T13:04:56Z</time>
      </trkpt>
      <trkpt lat="46.02588" lon="3.53723">
        <ele>554.54</ele>
        <time>2013-03-31T13:05:02Z</time>
      </trkpt>
      <trkpt lat="46.02597" lon="3.53749">
        <ele>555.81</ele>
        <time>2013-03-31T13:05:08Z</time>
      </trkpt>
      <trkpt lat="46.02604" lon="3.53779">
        <ele>556.67</ele>
        <time>2013-03-31T13:05:14Z</time>
      </trkpt>
      <trkpt lat="46.02611" lon="3.53807">
        <ele>557.4</ele>
        <time>2013-03-31T13:05:20Z</time>
      </trkpt>
      <trkpt lat="46.02617" lon="3.53835">
        <ele>558.1</ele>
        <time>2013-03-31T13:05:26Z</time>
      </trkpt>
      <trkpt lat="46.02623" lon="3.53863">
        <ele>559.07</ele>
        <time>2013-03-31T13:05:33Z</time>
      </trkpt>
      <trkpt lat="46.02628" lon="3.53893">
        <ele>559.72</ele>
        <time>2013-03-31T13:05:39Z</time>
      </trkpt>
      <trkpt lat="46.02628" lon="3.53925">
        <ele>562.63</ele>
        <time>2013-03-31T13:05:44Z</time>
      </trkpt>
      <trkpt lat="46.02628" lon="3.53959">
        <ele>565.21</ele>
        <time>2013-03-31T13:05:48Z</time>
      </trkpt>
      <trkpt lat="46.02625" lon="3.53985">
        <ele>565.98</ele>
        <time>2013-03-31T13:05:51Z</time>
      </trkpt>
      <trkpt lat="46.0262" lon="3.54013">
        <ele>566.31</ele>
        <time>2013-03-31T13:05:54Z</time>
      </trkpt>
      <trkpt lat="46.02613" lon="3.54043">
        <ele>565.9</ele>
        <time>2013-03-31T13:05:58Z</time>
      </trkpt>
      <trkpt lat="46.02607" lon="3.54069">
        <ele>565.7</ele>
        <time>2013-03-31T13:06:01Z</time>
      </trkpt>
      <trkpt lat="46.02601" lon="3.54101">
        <ele>565.04</ele>
        <time>2013-03-31T13:06:04Z</time>
      </trkpt>
      <trkpt lat="46.02594" lon="3.54133">
        <ele>564.76</ele>
        <time>2013-03-31T13:06:07Z</time>
      </trkpt>
      <trkpt lat="46.02589" lon="3.54163">
        <ele>564.64</ele>
        <time>2013-03-31T13:06:10Z</time>
      </trkpt>
      <trkpt lat="46.02585" lon="3.54189">
        <ele>564.14</ele>
        <time>2013-03-31T13:06:14Z</time>
      </trkpt>
      <trkpt lat="46.02576" lon="3.54213">
        <ele>563.57</ele>
        <time>2013-03-31T13:06:27Z</time>
      </trkpt>
      <trkpt lat="46.02555" lon="3.54228">
        <ele>564.42</ele>
        <time>2013-03-31T13:06:51Z</time>
      </trkpt>
      <trkpt lat="46.02539" lon="3.54245">
        <ele>565.51</ele>
        <time>2013-03-31T13:07:04Z</time>
      </trkpt>
      <trkpt lat="46.02523" lon="3.54266">
        <ele>566.5</ele>
        <time>2013-03-31T13:07:16Z</time>
      </trkpt>
      <trkpt lat="46.02508" lon="3.54285">
        <ele>567.45</ele>
        <time>2013-03-31T13:07:29Z</time>
      </trkpt>
      <trkpt lat="46.02495" lon="3.54307">
        <ele>568.23</ele>
        <time>2013-03-31T13:07:42Z</time>
      </trkpt>
      <trkpt lat="46.02481" lon="3.54328">
        <ele>569.31</ele>
        <time>2013-03-31T13:07:55Z</time>
      </trkpt>
      <trkpt lat="46.02466" lon="3.54346">
        <ele>570.47</ele>
        <time>2013-03-31T13:08:09Z</time>
      </trkpt>
      <trkpt lat="46.02449" lon="3.54363">
        <ele>571.8</ele>
        <time>2013-03-31T13:08:48Z</time>
      </trkpt>
      <trkpt lat="46.02436" lon="3.54382">
        <ele>572.45</ele>
        <time>2013-03-31T13:08:55Z</time>
      </trkpt>
      <trkpt lat="46.02421" lon="3.54401">
        <ele>573.41</ele>
        <time>2013-03-31T13:09:04Z</time>
      </trkpt>
      <trkpt lat="46.024" lon="3.54401">
        <ele>573.53</ele>
        <time>2013-03-31T13:09:10Z</time>
      </trkpt>
      <trkpt lat="46.02381" lon="3.54397">
        <ele>573.55</ele>
        <time>2013-03-31T13:09:14Z</time>
      </trkpt>
      <trkpt lat="46.02364" lon="3.54406">
        <ele>573.55</ele>
        <time>2013-03-31T13:09:19Z</time>
      </trkpt>
      <trkpt lat="46.02363" lon="3.54436">
        <ele>571.75</ele>
        <time>2013-03-31T13:09:24Z</time>
      </trkpt>
      <trkpt lat="46.0237" lon="3.54459">
        <ele>570.48</ele>
        <time>2013-03-31T13:09:27Z</time>
      </trkpt>
      <trkpt lat="46.02375" lon="3.54487">
        <ele>569.51</ele>
        <time>2013-03-31T13:09:30Z</time>
      </trkpt>
      <trkpt lat="46.02364" lon="3.54519">
        <ele>568.96</ele>
        <time>2013-03-31T13:09:33Z</time>
      </trkpt>
      <trkpt lat="46.0234" lon="3.54534">
        <ele>568.72</ele>
        <time>2013-03-31T13:09:36Z</time>
      </trkpt>
      <trkpt lat="46.02323" lon="3.54543">
        <ele>568.4</ele>
        <time>2013-03-31T13:09:38Z</time>
      </trkpt>
      <trkpt lat="46.02305" lon="3.54545">
        <ele>567.78</ele>
        <time>2013-03-31T13:09:40Z</time>
      </trkpt>
      <trkpt lat="46.02284" lon="3.54547">
        <ele>566.55</ele>
        <time>2013-03-31T13:09:42Z</time>
      </trkpt>
      <trkpt lat="46.02262" lon="3.54547">
        <ele>564.99</ele>
        <time>2013-03-31T13:09:44Z</time>
      </trkpt>
      <trkpt lat="46.02239" lon="3.54547">
        <ele>563.67</ele>
        <time>2013-03-31T13:09:46Z</time>
      </trkpt>
      <trkpt lat="46.02218" lon="3.54545">
        <ele>562.5</ele>
        <time>2013-03-31T13:09:48Z</time>
      </trkpt>
      <trkpt lat="46.02194" lon="3.54549">
        <ele>561.4</ele>
        <time>2013-03-31T13:09:50Z</time>
      </trkpt>
      <trkpt lat="46.02179" lon="3.54573">
        <ele>560.34</ele>
        <time>2013-03-31T13:09:52Z</time>
      </trkpt>
      <trkpt lat="46.02167" lon="3.54599">
        <ele>558.87</ele>
        <time>2013-03-31T13:09:54Z</time>
      </trkpt>
      <trkpt lat="46.02147" lon="3.5462">
        <ele>555.58</ele>
        <time>2013-03-31T13:09:57Z</time>
      </trkpt>
      <trkpt lat="46.02125" lon="3.54627">
        <ele>551.55</ele>
        <time>2013-03-31T13:10:00Z</time>
      </trkpt>
      <trkpt lat="46.02103" lon="3.5462">
        <ele>547.97</ele>
        <time>2013-03-31T13:10:03Z</time>
      </trkpt>
      <trkpt lat="46.02083" lon="3.54614">
        <ele>544.68</ele>
        <time>2013-03-31T13:10:08Z</time>
      </trkpt>
      <trkpt lat="46.02063" lon="3.54612">
        <ele>539.6</ele>
        <time>2013-03-31T13:10:13Z</time>
      </trkpt>
      <trkpt lat="46.02046" lon="3.5462">
        <ele>534.88</ele>
        <time>2013-03-31T13:10:17Z</time>
      </trkpt>
      <trkpt lat="46.02031" lon="3.54637">
        <ele>531.58</ele>
        <time>2013-03-31T13:10:22Z</time>
      </trkpt>
      <trkpt lat="46.02017" lon="3.54655">
        <ele>529.91</ele>
        <time>2013-03-31T13:10:28Z</time>
      </trkpt>
      <trkpt lat="46.02001" lon="3.5467">
        <ele>528.42</ele>
        <time>2013-03-31T13:10:34Z</time>
      </trkpt>
      <trkpt lat="46.01983" lon="3.54687">
        <ele>526.69</ele>
        <time>2013-03-31T13:10:40Z</time>
      </trkpt>
      <trkpt lat="46.01966" lon="3.54697">
        <ele>525.39</ele>
        <time>2013-03-31T13:10:45Z</time>
      </trkpt>
      <trkpt lat="46.01948" lon="3.54706">
        <ele>523.5</ele>
        <time>2013-03-31T13:10:51Z</time>
      </trkpt>
      <trkpt lat="46.01929" lon="3.54717">
        <ele>520.77</ele>
        <time>2013-03-31T13:10:59Z</time>
      </trkpt>
      <trkpt lat="46.01911" lon="3.54725">
        <ele>518.95</ele>
        <time>2013-03-31T13:11:06Z</time>
      </trkpt>
      <trkpt lat="46.01892" lon="3.54738">
        <ele>519.85</ele>
        <time>2013-03-31T13:11:15Z</time>
      </trkpt>
      <trkpt lat="46.01867" lon="3.54751">
        <ele>522.94</ele>
        <time>2013-03-31T13:11:22Z</time>
      </trkpt>
      <trkpt lat="46.01848" lon="3.54764">
        <ele>525.45</ele>
        <time>2013-03-31T13:11:28Z</time>
      </trkpt>
      <trkpt lat="46.0183" lon="3.54775">
        <ele>527.43</ele>
        <time>2013-03-31T13:11:34Z</time>
      </trkpt>
      <trkpt lat="46.01812" lon="3.54792">
        <ele>528.69</ele>
        <time>2013-03-31T13:11:42Z</time>
      </trkpt>
      <trkpt lat="46.01791" lon="3.548">
        <ele>530.23</ele>
        <time>2013-03-31T13:11:48Z</time>
      </trkpt>
      <trkpt lat="46.01771" lon="3.54807">
        <ele>532.93</ele>
        <time>2013-03-31T13:11:54Z</time>
      </trkpt>
      <trkpt lat="46.01753" lon="3.5482">
        <ele>536.58</ele>
        <time>2013-03-31T13:12:03Z</time>
      </trkpt>
      <trkpt lat="46.01728" lon="3.54837">
        <ele>543.64</ele>
        <time>2013-03-31T13:12:19Z</time>
      </trkpt>
      <trkpt lat="46.01707" lon="3.54846">
        <ele>548.34</ele>
        <time>2013-03-31T13:12:31Z</time>
      </trkpt>
      <trkpt lat="46.01689" lon="3.54854">
        <ele>550.56</ele>
        <time>2013-03-31T13:12:41Z</time>
      </trkpt>
      <trkpt lat="46.0167" lon="3.54856">
        <ele>552.22</ele>
        <time>2013-03-31T13:12:49Z</time>
      </trkpt>
      <trkpt lat="46.01651" lon="3.54863">
        <ele>552.78</ele>
        <time>2013-03-31T13:12:59Z</time>
      </trkpt>
      <trkpt lat="46.01635" lon="3.54876">
        <ele>555.53</ele>
        <time>2013-03-31T13:13:25Z</time>
      </trkpt>
      <trkpt lat="46.01617" lon="3.5488">
        <ele>558.37</ele>
        <time>2013-03-31T13:14:19Z</time>
      </trkpt>
      <trkpt lat="46.01631" lon="3.54897">
        <ele>572.09</ele>
        <time>2013-03-31T13:18:33Z</time>
      </trkpt>
      <trkpt lat="46.01646" lon="3.54912">
        <ele>573.27</ele>
        <time>2013-03-31T13:18:41Z</time>
      </trkpt>
      <trkpt lat="46.0166" lon="3.54929">
        <ele>574.87</ele>
        <time>2013-03-31T13:18:50Z</time>
      </trkpt>
      <trkpt lat="46.01675" lon="3.54949">
        <ele>575.5</ele>
        <time>2013-03-31T13:18:59Z</time>
      </trkpt>
      <trkpt lat="46.01688" lon="3.54968">
        <ele>574.73</ele>
        <time>2013-03-31T13:19:08Z</time>
      </trkpt>
      <trkpt lat="46.01699" lon="3.54989">
        <ele>574.58</ele>
        <time>2013-03-31T13:19:15Z</time>
      </trkpt>
      <trkpt lat="46.01712" lon="3.55009">
        <ele>573.74</ele>
        <time>2013-03-31T13:19:21Z</time>
      </trkpt>
      <trkpt lat="46.01729" lon="3.55021">
        <ele>573.58</ele>
        <time>2013-03-31T13:19:28Z</time>
      </trkpt>
      <trkpt lat="46.01746" lon="3.55032">
        <ele>571.95</ele>
        <time>2013-03-31T13:19:37Z</time>
      </trkpt>
      <trkpt lat="46.01763" lon="3.55041">
        <ele>570.15</ele>
        <time>2013-03-31T13:19:45Z</time>
      </trkpt>
      <trkpt lat="46.01778" lon="3.55056">
        <ele>567.76</ele>
        <time>2013-03-31T13:19:54Z</time>
      </trkpt>
      <trkpt lat="46.01766" lon="3.55077">
        <ele>564.13</ele>
        <time>2013-03-31T13:20:04Z</time>
      </trkpt>
      <trkpt lat="46.01747" lon="3.55088">
        <ele>562.1</ele>
        <time>2013-03-31T13:20:09Z</time>
      </trkpt>
      <trkpt lat="46.01727" lon="3.5509">
        <ele>558.85</ele>
        <time>2013-03-31T13:20:13Z</time>
      </trkpt>
      <trkpt lat="46.01706" lon="3.55094">
        <ele>556.02</ele>
        <time>2013-03-31T13:20:17Z</time>
      </trkpt>
      <trkpt lat="46.01689" lon="3.55103">
        <ele>554.77</ele>
        <time>2013-03-31T13:20:21Z</time>
      </trkpt>
      <trkpt lat="46.01673" lon="3.55118">
        <ele>555.2</ele>
        <time>2013-03-31T13:20:25Z</time>
      </trkpt>
      <trkpt lat="46.01653" lon="3.55142">
        <ele>559.2</ele>
        <time>2013-03-31T13:20:29Z</time>
      </trkpt>
      <trkpt lat="46.01635" lon="3.55159">
        <ele>562.69</ele>
        <time>2013-03-31T13:20:34Z</time>
      </trkpt>
      <trkpt lat="46.0162" lon="3.5518">
        <ele>562.84</ele>
        <time>2013-03-31T13:20:38Z</time>
      </trkpt>
      <trkpt lat="46.01606" lon="3.552">
        <ele>561.41</ele>
        <time>2013-03-31T13:20:41Z</time>
      </trkpt>
      <trkpt lat="46.01591" lon="3.55219">
        <ele>559.9</ele>
        <time>2013-03-31T13:20:44Z</time>
      </trkpt>
      <trkpt lat="46.01576" lon="3.55236">
        <ele>557.85</ele>
        <time>2013-03-31T13:20:47Z</time>
      </trkpt>
      <trkpt lat="46.0157" lon="3.55262">
        <ele>555.16</ele>
        <time>2013-03-31T13:20:51Z</time>
      </trkpt>
      <trkpt lat="46.01571" lon="3.55303">
        <ele>552.81</ele>
        <time>2013-03-31T13:20:59Z</time>
      </trkpt>
      <trkpt lat="46.01575" lon="3.55333">
        <ele>552.33</ele>
        <time>2013-03-31T13:21:07Z</time>
      </trkpt>
      <trkpt lat="46.01577" lon="3.55361">
        <ele>551.36</ele>
        <time>2013-03-31T13:21:16Z</time>
      </trkpt>
      <trkpt lat="46.01572" lon="3.55388">
        <ele>548.35</ele>
        <time>2013-03-31T13:21:27Z</time>
      </trkpt>
      <trkpt lat="46.01565" lon="3.55416">
        <ele>545.97</ele>
        <time>2013-03-31T13:21:35Z</time>
      </trkpt>
      <trkpt lat="46.01561" lon="3.55448">
        <ele>545.84</ele>
        <time>2013-03-31T13:21:43Z</time>
      </trkpt>
      <trkpt lat="46.01556" lon="3.55479">
        <ele>546.48</ele>
        <time>2013-03-31T13:21:51Z</time>
      </trkpt>
      <trkpt lat="46.01555" lon="3.55513">
        <ele>546.79</ele>
        <time>2013-03-31T13:21:57Z</time>
      </trkpt>
      <trkpt lat="46.01557" lon="3.55543">
        <ele>547.62</ele>
        <time>2013-03-31T13:22:02Z</time>
      </trkpt>
      <trkpt lat="46.01563" lon="3.55573">
        <ele>548.33</ele>
        <time>2013-03-31T13:22:07Z</time>
      </trkpt>
      <trkpt lat="46.01574" lon="3.55607">
        <ele>549.4</ele>
        <time>2013-03-31T13:22:16Z</time>
      </trkpt>
      <trkpt lat="46.01587" lon="3.55629">
        <ele>551.31</ele>
        <time>2013-03-31T13:22:24Z</time>
      </trkpt>
      <trkpt lat="46.01596" lon="3.55657">
        <ele>554.2</ele>
        <time>2013-03-31T13:22:32Z</time>
      </trkpt>
      <trkpt lat="46.01604" lon="3.55687">
        <ele>557.19</ele>
        <time>2013-03-31T13:22:40Z</time>
      </trkpt>
      <trkpt lat="46.01614" lon="3.55712">
        <ele>560.15</ele>
        <time>2013-03-31T13:22:47Z</time>
      </trkpt>
      <trkpt lat="46.01624" lon="3.55751">
        <ele>566.62</ele>
        <time>2013-03-31T13:23:00Z</time>
      </trkpt>
      <trkpt lat="46.01634" lon="3.55777">
        <ele>571.46</ele>
        <time>2013-03-31T13:23:07Z</time>
      </trkpt>
      <trkpt lat="46.01642" lon="3.55803">
        <ele>574.11</ele>
        <time>2013-03-31T13:23:13Z</time>
      </trkpt>
      <trkpt lat="46.01648" lon="3.5583">
        <ele>576.17</ele>
        <time>2013-03-31T13:23:21Z</time>
      </trkpt>
      <trkpt lat="46.01646" lon="3.55858">
        <ele>575.75</ele>
        <time>2013-03-31T13:23:29Z</time>
      </trkpt>
      <trkpt lat="46.01639" lon="3.55886">
        <ele>574.56</ele>
        <time>2013-03-31T13:23:37Z</time>
      </trkpt>
      <trkpt lat="46.01627" lon="3.55914">
        <ele>572.43</ele>
        <time>2013-03-31T13:23:44Z</time>
      </trkpt>
      <trkpt lat="46.01616" lon="3.55942">
        <ele>571</ele>
        <time>2013-03-31T13:23:49Z</time>
      </trkpt>
      <trkpt lat="46.01609" lon="3.55966">
        <ele>570.01</ele>
        <time>2013-03-31T13:23:53Z</time>
      </trkpt>
      <trkpt lat="46.01597" lon="3.56002">
        <ele>570.43</ele>
        <time>2013-03-31T13:23:56Z</time>
      </trkpt>
      <trkpt lat="46.01587" lon="3.56028">
        <ele>571.86</ele>
        <time>2013-03-31T13:23:58Z</time>
      </trkpt>
      <trkpt lat="46.01575" lon="3.56056">
        <ele>573.91</ele>
        <time>2013-03-31T13:24:00Z</time>
      </trkpt>
      <trkpt lat="46.01563" lon="3.56081">
        <ele>575.51</ele>
        <time>2013-03-31T13:24:02Z</time>
      </trkpt>
      <trkpt lat="46.01555" lon="3.56107">
        <ele>576.4</ele>
        <time>2013-03-31T13:24:04Z</time>
      </trkpt>
      <trkpt lat="46.01547" lon="3.56133">
        <ele>576.47</ele>
        <time>2013-03-31T13:24:06Z</time>
      </trkpt>
      <trkpt lat="46.0154" lon="3.56157">
        <ele>575.82</ele>
        <time>2013-03-31T13:24:08Z</time>
      </trkpt>
      <trkpt lat="46.0153" lon="3.56189">
        <ele>573.57</ele>
        <time>2013-03-31T13:24:11Z</time>
      </trkpt>
      <trkpt lat="46.01517" lon="3.56219">
        <ele>569.71</ele>
        <time>2013-03-31T13:24:19Z</time>
      </trkpt>
      <trkpt lat="46.01497" lon="3.56227">
        <ele>566.84</ele>
        <time>2013-03-31T13:24:29Z</time>
      </trkpt>
      <trkpt lat="46.0148" lon="3.56236">
        <ele>563.96</ele>
        <time>2013-03-31T13:24:33Z</time>
      </trkpt>
      <trkpt lat="46.0146" lon="3.5624">
        <ele>558.42</ele>
        <time>2013-03-31T13:24:37Z</time>
      </trkpt>
      <trkpt lat="46.01439" lon="3.56245">
        <ele>552.46</ele>
        <time>2013-03-31T13:24:41Z</time>
      </trkpt>
      <trkpt lat="46.01415" lon="3.56247">
        <ele>548.67</ele>
        <time>2013-03-31T13:24:45Z</time>
      </trkpt>
      <trkpt lat="46.01397" lon="3.56238">
        <ele>545.27</ele>
        <time>2013-03-31T13:24:49Z</time>
      </trkpt>
      <trkpt lat="46.01381" lon="3.56223">
        <ele>542.6</ele>
        <time>2013-03-31T13:24:55Z</time>
      </trkpt>
      <trkpt lat="46.0136" lon="3.56215">
        <ele>541.69</ele>
        <time>2013-03-31T13:25:02Z</time>
      </trkpt>
      <trkpt lat="46.0134" lon="3.5621">
        <ele>542.02</ele>
        <time>2013-03-31T13:25:08Z</time>
      </trkpt>
      <trkpt lat="46.01321" lon="3.56204">
        <ele>544.02</ele>
        <time>2013-03-31T13:25:13Z</time>
      </trkpt>
      <trkpt lat="46.01297" lon="3.56197">
        <ele>547.67</ele>
        <time>2013-03-31T13:25:21Z</time>
      </trkpt>
      <trkpt lat="46.01276" lon="3.56187">
        <ele>551.88</ele>
        <time>2013-03-31T13:25:29Z</time>
      </trkpt>
      <trkpt lat="46.01258" lon="3.56174">
        <ele>555.96</ele>
        <time>2013-03-31T13:25:32Z</time>
      </trkpt>
      <trkpt lat="46.01239" lon="3.56157">
        <ele>561.62</ele>
        <time>2013-03-31T13:25:36Z</time>
      </trkpt>
      <trkpt lat="46.0122" lon="3.56146">
        <ele>564.79</ele>
        <time>2013-03-31T13:25:42Z</time>
      </trkpt>
      <trkpt lat="46.01202" lon="3.56135">
        <ele>566.18</ele>
        <time>2013-03-31T13:25:48Z</time>
      </trkpt>
      <trkpt lat="46.01187" lon="3.56112">
        <ele>568.62</ele>
        <time>2013-03-31T13:25:54Z</time>
      </trkpt>
      <trkpt lat="46.01172" lon="3.5609">
        <ele>572.58</ele>
        <time>2013-03-31T13:25:58Z</time>
      </trkpt>
      <trkpt lat="46.01156" lon="3.56069">
        <ele>577.68</ele>
        <time>2013-03-31T13:26:02Z</time>
      </trkpt>
      <trkpt lat="46.01142" lon="3.56049">
        <ele>581.01</ele>
        <time>2013-03-31T13:26:06Z</time>
      </trkpt>
      <trkpt lat="46.0114" lon="3.56019">
        <ele>581.23</ele>
        <time>2013-03-31T13:26:13Z</time>
      </trkpt>
      <trkpt lat="46.01131" lon="3.55987">
        <ele>578.75</ele>
        <time>2013-03-31T13:26:29Z</time>
      </trkpt>
      <trkpt lat="46.01117" lon="3.55959">
        <ele>578.58</ele>
        <time>2013-03-31T13:26:36Z</time>
      </trkpt>
      <trkpt lat="46.011" lon="3.55946">
        <ele>578.56</ele>
        <time>2013-03-31T13:26:42Z</time>
      </trkpt>
      <trkpt lat="46.01082" lon="3.55948">
        <ele>578.55</ele>
        <time>2013-03-31T13:26:47Z</time>
      </trkpt>
      <trkpt lat="46.01067" lon="3.55931">
        <ele>578.12</ele>
        <time>2013-03-31T13:26:52Z</time>
      </trkpt>
      <trkpt lat="46.0105" lon="3.55912">
        <ele>577.15</ele>
        <time>2013-03-31T13:26:56Z</time>
      </trkpt>
      <trkpt lat="46.01036" lon="3.55895">
        <ele>576.12</ele>
        <time>2013-03-31T13:26:59Z</time>
      </trkpt>
      <trkpt lat="46.01023" lon="3.55875">
        <ele>575.21</ele>
        <time>2013-03-31T13:27:02Z</time>
      </trkpt>
      <trkpt lat="46.00999" lon="3.55869">
        <ele>573.8</ele>
        <time>2013-03-31T13:28:01Z</time>
      </trkpt>
      <trkpt lat="46.00977" lon="3.55873">
        <ele>574.38</ele>
        <time>2013-03-31T13:28:06Z</time>
      </trkpt>
      <trkpt lat="46.00955" lon="3.55875">
        <ele>573.75</ele>
        <time>2013-03-31T13:28:11Z</time>
      </trkpt>
      <trkpt lat="46.00937" lon="3.55875">
        <ele>572.84</ele>
        <time>2013-03-31T13:28:16Z</time>
      </trkpt>
      <trkpt lat="46.00915" lon="3.55871">
        <ele>571.53</ele>
        <time>2013-03-31T13:28:22Z</time>
      </trkpt>
      <trkpt lat="46.00895" lon="3.55871">
        <ele>570.79</ele>
        <time>2013-03-31T13:28:27Z</time>
      </trkpt>
      <trkpt lat="46.00875" lon="3.55871">
        <ele>568.68</ele>
        <time>2013-03-31T13:28:31Z</time>
      </trkpt>
      <trkpt lat="46.00855" lon="3.55878">
        <ele>567.57</ele>
        <time>2013-03-31T13:28:36Z</time>
      </trkpt>
      <trkpt lat="46.00833" lon="3.55878">
        <ele>566.88</ele>
        <time>2013-03-31T13:28:40Z</time>
      </trkpt>
      <trkpt lat="46.0081" lon="3.5588">
        <ele>567.09</ele>
        <time>2013-03-31T13:28:44Z</time>
      </trkpt>
      <trkpt lat="46.00792" lon="3.55884">
        <ele>567.41</ele>
        <time>2013-03-31T13:28:48Z</time>
      </trkpt>
      <trkpt lat="46.00771" lon="3.55891">
        <ele>567.52</ele>
        <time>2013-03-31T13:28:53Z</time>
      </trkpt>
      <trkpt lat="46.00752" lon="3.55893">
        <ele>566.86</ele>
        <time>2013-03-31T13:28:57Z</time>
      </trkpt>
      <trkpt lat="46.00733" lon="3.55895">
        <ele>565.14</ele>
        <time>2013-03-31T13:29:01Z</time>
      </trkpt>
      <trkpt lat="46.00715" lon="3.55908">
        <ele>562.76</ele>
        <time>2013-03-31T13:29:07Z</time>
      </trkpt>
      <trkpt lat="46.007" lon="3.55925">
        <ele>561.71</ele>
        <time>2013-03-31T13:29:14Z</time>
      </trkpt>
      <trkpt lat="46.00685" lon="3.5594">
        <ele>560.82</ele>
        <time>2013-03-31T13:29:20Z</time>
      </trkpt>
      <trkpt lat="46.00668" lon="3.55957">
        <ele>560.59</ele>
        <time>2013-03-31T13:29:27Z</time>
      </trkpt>
      <trkpt lat="46.00652" lon="3.55974">
        <ele>560.56</ele>
        <time>2013-03-31T13:29:33Z</time>
      </trkpt>
      <trkpt lat="46.00635" lon="3.55991">
        <ele>560.99</ele>
        <time>2013-03-31T13:29:39Z</time>
      </trkpt>
      <trkpt lat="46.00623" lon="3.56011">
        <ele>561.45</ele>
        <time>2013-03-31T13:29:45Z</time>
      </trkpt>
      <trkpt lat="46.00609" lon="3.56034">
        <ele>562.22</ele>
        <time>2013-03-31T13:29:51Z</time>
      </trkpt>
      <trkpt lat="46.00598" lon="3.56058">
        <ele>564.36</ele>
        <time>2013-03-31T13:29:56Z</time>
      </trkpt>
      <trkpt lat="46.00588" lon="3.56086">
        <ele>565.27</ele>
        <time>2013-03-31T13:30:01Z</time>
      </trkpt>
      <trkpt lat="46.0058" lon="3.56114">
        <ele>566.17</ele>
        <time>2013-03-31T13:30:06Z</time>
      </trkpt>
      <trkpt lat="46.00571" lon="3.56144">
        <ele>565.7</ele>
        <time>2013-03-31T13:30:11Z</time>
      </trkpt>
      <trkpt lat="46.00564" lon="3.56172">
        <ele>565.59</ele>
        <time>2013-03-31T13:30:16Z</time>
      </trkpt>
      <trkpt lat="46.00558" lon="3.562">
        <ele>565.56</ele>
        <time>2013-03-31T13:30:22Z</time>
      </trkpt>
      <trkpt lat="46.00556" lon="3.56225">
        <ele>565.55</ele>
        <time>2013-03-31T13:30:27Z</time>
      </trkpt>
      <trkpt lat="46.00553" lon="3.56251">
        <ele>565.55</ele>
        <time>2013-03-31T13:30:32Z</time>
      </trkpt>
      <trkpt lat="46.0055" lon="3.56277">
        <ele>565.55</ele>
        <time>2013-03-31T13:30:37Z</time>
      </trkpt>
      <trkpt lat="46.00547" lon="3.56302">
        <ele>565.3</ele>
        <time>2013-03-31T13:30:42Z</time>
      </trkpt>
      <trkpt lat="46.00545" lon="3.56328">
        <ele>564.73</ele>
        <time>2013-03-31T13:30:47Z</time>
      </trkpt>
      <trkpt lat="46.00543" lon="3.56354">
        <ele>564.35</ele>
        <time>2013-03-31T13:30:52Z</time>
      </trkpt>
      <trkpt lat="46.00541" lon="3.56382">
        <ele>563.74</ele>
        <time>2013-03-31T13:30:57Z</time>
      </trkpt>
      <trkpt lat="46.00539" lon="3.5641">
        <ele>563.59</ele>
        <time>2013-03-31T13:31:03Z</time>
      </trkpt>
      <trkpt lat="46.00531" lon="3.56438">
        <ele>563.31</ele>
        <time>2013-03-31T13:31:08Z</time>
      </trkpt>
      <trkpt lat="46.00521" lon="3.56466">
        <ele>564.06</ele>
        <time>2013-03-31T13:31:12Z</time>
      </trkpt>
      <trkpt lat="46.00512" lon="3.56493">
        <ele>565.77</ele>
        <time>2013-03-31T13:31:16Z</time>
      </trkpt>
      <trkpt lat="46.005" lon="3.56517">
        <ele>568.25</ele>
        <time>2013-03-31T13:31:21Z</time>
      </trkpt>
      <trkpt lat="46.00487" lon="3.56543">
        <ele>572.6</ele>
        <time>2013-03-31T13:31:30Z</time>
      </trkpt>
      <trkpt lat="46.00482" lon="3.56571">
        <ele>575.62</ele>
        <time>2013-03-31T13:31:38Z</time>
      </trkpt>
      <trkpt lat="46.00476" lon="3.56601">
        <ele>578.73</ele>
        <time>2013-03-31T13:31:46Z</time>
      </trkpt>
      <trkpt lat="46.00466" lon="3.56624">
        <ele>581.49</ele>
        <time>2013-03-31T13:31:55Z</time>
      </trkpt>
      <trkpt lat="46.00458" lon="3.56652">
        <ele>583.57</ele>
        <time>2013-03-31T13:32:05Z</time>
      </trkpt>
      <trkpt lat="46.00451" lon="3.5668">
        <ele>586.23</ele>
        <time>2013-03-31T13:32:13Z</time>
      </trkpt>
      <trkpt lat="46.0045" lon="3.5671">
        <ele>589.35</ele>
        <time>2013-03-31T13:32:22Z</time>
      </trkpt>
      <trkpt lat="46.00457" lon="3.56736">
        <ele>591.63</ele>
        <time>2013-03-31T13:32:34Z</time>
      </trkpt>
      <trkpt lat="46.00463" lon="3.56766">
        <ele>592.5</ele>
        <time>2013-03-31T13:32:44Z</time>
      </trkpt>
      <trkpt lat="46.00457" lon="3.56794">
        <ele>592.8</ele>
        <time>2013-03-31T13:32:52Z</time>
      </trkpt>
      <trkpt lat="46.00448" lon="3.56822">
        <ele>594.1</ele>
        <time>2013-03-31T13:32:58Z</time>
      </trkpt>
      <trkpt lat="46.00439" lon="3.56848">
        <ele>595.16</ele>
        <time>2013-03-31T13:33:04Z</time>
      </trkpt>
      <trkpt lat="46.00432" lon="3.56875">
        <ele>596.35</ele>
        <time>2013-03-31T13:33:13Z</time>
      </trkpt>
      <trkpt lat="46.00424" lon="3.56901">
        <ele>596.97</ele>
        <time>2013-03-31T13:33:21Z</time>
      </trkpt>
      <trkpt lat="46.00422" lon="3.56927">
        <ele>598.2</ele>
        <time>2013-03-31T13:33:25Z</time>
      </trkpt>
      <trkpt lat="46.00423" lon="3.56955">
        <ele>600.24</ele>
        <time>2013-03-31T13:33:29Z</time>
      </trkpt>
      <trkpt lat="46.00428" lon="3.56983">
        <ele>603.73</ele>
        <time>2013-03-31T13:33:35Z</time>
      </trkpt>
      <trkpt lat="46.00429" lon="3.57013">
        <ele>608.78</ele>
        <time>2013-03-31T13:33:45Z</time>
      </trkpt>
      <trkpt lat="46.00432" lon="3.57041">
        <ele>611.28</ele>
        <time>2013-03-31T13:33:55Z</time>
      </trkpt>
      <trkpt lat="46.00439" lon="3.57066">
        <ele>612.4</ele>
        <time>2013-03-31T13:34:05Z</time>
      </trkpt>
      <trkpt lat="46.00449" lon="3.57092">
        <ele>611.23</ele>
        <time>2013-03-31T13:34:13Z</time>
      </trkpt>
      <trkpt lat="46.00458" lon="3.57116">
        <ele>609.86</ele>
        <time>2013-03-31T13:34:21Z</time>
      </trkpt>
      <trkpt lat="46.00466" lon="3.57139">
        <ele>610.27</ele>
        <time>2013-03-31T13:34:29Z</time>
      </trkpt>
      <trkpt lat="46.00458" lon="3.57163">
        <ele>618.53</ele>
        <time>2013-03-31T13:36:35Z</time>
      </trkpt>
      <trkpt lat="46.00463" lon="3.57191">
        <ele>620.52</ele>
        <time>2013-03-31T13:37:08Z</time>
      </trkpt>
      <trkpt lat="46.0045" lon="3.57212">
        <ele>621.37</ele>
        <time>2013-03-31T13:37:17Z</time>
      </trkpt>
      <trkpt lat="46.00437" lon="3.57234">
        <ele>622.65</ele>
        <time>2013-03-31T13:37:24Z</time>
      </trkpt>
      <trkpt lat="46.00427" lon="3.5726">
        <ele>624.12</ele>
        <time>2013-03-31T13:37:31Z</time>
      </trkpt>
      <trkpt lat="46.00425" lon="3.57285">
        <ele>625.16</ele>
        <time>2013-03-31T13:37:37Z</time>
      </trkpt>
      <trkpt lat="46.00429" lon="3.57311">
        <ele>625.94</ele>
        <time>2013-03-31T13:37:44Z</time>
      </trkpt>
      <trkpt lat="46.0044" lon="3.57337">
        <ele>626.74</ele>
        <time>2013-03-31T13:37:52Z</time>
      </trkpt>
      <trkpt lat="46.00444" lon="3.57367">
        <ele>627.85</ele>
        <time>2013-03-31T13:37:58Z</time>
      </trkpt>
      <trkpt lat="46.00448" lon="3.57395">
        <ele>629.11</ele>
        <time>2013-03-31T13:38:04Z</time>
      </trkpt>
      <trkpt lat="46.00448" lon="3.57423">
        <ele>630.16</ele>
        <time>2013-03-31T13:38:10Z</time>
      </trkpt>
      <trkpt lat="46.00443" lon="3.57448">
        <ele>631.06</ele>
        <time>2013-03-31T13:38:16Z</time>
      </trkpt>
      <trkpt lat="46.00439" lon="3.57474">
        <ele>631.9</ele>
        <time>2013-03-31T13:38:22Z</time>
      </trkpt>
      <trkpt lat="46.00438" lon="3.57502">
        <ele>633.17</ele>
        <time>2013-03-31T13:38:30Z</time>
      </trkpt>
      <trkpt lat="46.0044" lon="3.57528">
        <ele>634.06</ele>
        <time>2013-03-31T13:38:36Z</time>
      </trkpt>
      <trkpt lat="46.00442" lon="3.57556">
        <ele>634.74</ele>
        <time>2013-03-31T13:38:43Z</time>
      </trkpt>
      <trkpt lat="46.00441" lon="3.57584">
        <ele>635.91</ele>
        <time>2013-03-31T13:38:51Z</time>
      </trkpt>
      <trkpt lat="46.00436" lon="3.57609">
        <ele>636.88</ele>
        <time>2013-03-31T13:38:57Z</time>
      </trkpt>
      <trkpt lat="46.00433" lon="3.57635">
        <ele>637.87</ele>
        <time>2013-03-31T13:39:03Z</time>
      </trkpt>
      <trkpt lat="46.0043" lon="3.57665">
        <ele>639.04</ele>
        <time>2013-03-31T13:39:10Z</time>
      </trkpt>
      <trkpt lat="46.00427" lon="3.57691">
        <ele>640.15</ele>
        <time>2013-03-31T13:39:16Z</time>
      </trkpt>
      <trkpt lat="46.00423" lon="3.57717">
        <ele>641.16</ele>
        <time>2013-03-31T13:39:22Z</time>
      </trkpt>
      <trkpt lat="46.00415" lon="3.57742">
        <ele>642.25</ele>
        <time>2013-03-31T13:39:28Z</time>
      </trkpt>
      <trkpt lat="46.00408" lon="3.57766">
        <ele>643.82</ele>
        <time>2013-03-31T13:39:35Z</time>
      </trkpt>
      <trkpt lat="46.00397" lon="3.5779">
        <ele>645.47</ele>
        <time>2013-03-31T13:39:42Z</time>
      </trkpt>
      <trkpt lat="46.00382" lon="3.57809">
        <ele>647.13</ele>
        <time>2013-03-31T13:39:50Z</time>
      </trkpt>
      <trkpt lat="46.00367" lon="3.57824">
        <ele>648.8</ele>
        <time>2013-03-31T13:39:57Z</time>
      </trkpt>
      <trkpt lat="46.00352" lon="3.57843">
        <ele>650.14</ele>
        <time>2013-03-31T13:40:04Z</time>
      </trkpt>
      <trkpt lat="46.00337" lon="3.57862">
        <ele>651.26</ele>
        <time>2013-03-31T13:40:11Z</time>
      </trkpt>
      <trkpt lat="46.00322" lon="3.57882">
        <ele>652.82</ele>
        <time>2013-03-31T13:40:18Z</time>
      </trkpt>
      <trkpt lat="46.00308" lon="3.57901">
        <ele>654.03</ele>
        <time>2013-03-31T13:40:25Z</time>
      </trkpt>
      <trkpt lat="46.00294" lon="3.57923">
        <ele>655.25</ele>
        <time>2013-03-31T13:40:32Z</time>
      </trkpt>
      <trkpt lat="46.00281" lon="3.57942">
        <ele>656.96</ele>
        <time>2013-03-31T13:40:39Z</time>
      </trkpt>
      <trkpt lat="46.00271" lon="3.57965">
        <ele>658.32</ele>
        <time>2013-03-31T13:40:47Z</time>
      </trkpt>
      <trkpt lat="46.00268" lon="3.57993">
        <ele>659.87</ele>
        <time>2013-03-31T13:40:55Z</time>
      </trkpt>
      <trkpt lat="46.00285" lon="3.58006">
        <ele>660.73</ele>
        <time>2013-03-31T13:41:03Z</time>
      </trkpt>
      <trkpt lat="46.00302" lon="3.58017">
        <ele>661.66</ele>
        <time>2013-03-31T13:41:09Z</time>
      </trkpt>
      <trkpt lat="46.00318" lon="3.5803">
        <ele>662.92</ele>
        <time>2013-03-31T13:41:18Z</time>
      </trkpt>
      <trkpt lat="46.00335" lon="3.58041">
        <ele>663.53</ele>
        <time>2013-03-31T13:41:30Z</time>
      </trkpt>
      <trkpt lat="46.00352" lon="3.58053">
        <ele>663.55</ele>
        <time>2013-03-31T13:41:39Z</time>
      </trkpt>
      <trkpt lat="46.0037" lon="3.58064">
        <ele>664.32</ele>
        <time>2013-03-31T13:41:47Z</time>
      </trkpt>
      <trkpt lat="46.00389" lon="3.58068">
        <ele>665.2</ele>
        <time>2013-03-31T13:41:54Z</time>
      </trkpt>
      <trkpt lat="46.00407" lon="3.58071">
        <ele>666.88</ele>
        <time>2013-03-31T13:41:59Z</time>
      </trkpt>
      <trkpt lat="46.00425" lon="3.58073">
        <ele>669.72</ele>
        <time>2013-03-31T13:42:03Z</time>
      </trkpt>
      <trkpt lat="46.00443" lon="3.58075">
        <ele>671.16</ele>
        <time>2013-03-31T13:42:07Z</time>
      </trkpt>
      <trkpt lat="46.00462" lon="3.58073">
        <ele>671.43</ele>
        <time>2013-03-31T13:42:11Z</time>
      </trkpt>
      <trkpt lat="46.00482" lon="3.58066">
        <ele>671.51</ele>
        <time>2013-03-31T13:42:15Z</time>
      </trkpt>
      <trkpt lat="46.00502" lon="3.58071">
        <ele>671.54</ele>
        <time>2013-03-31T13:42:18Z</time>
      </trkpt>
      <trkpt lat="46.00518" lon="3.58094">
        <ele>670.97</ele>
        <time>2013-03-31T13:42:21Z</time>
      </trkpt>
      <trkpt lat="46.00532" lon="3.58122">
        <ele>669.9</ele>
        <time>2013-03-31T13:42:24Z</time>
      </trkpt>
      <trkpt lat="46.00545" lon="3.5815">
        <ele>668.68</ele>
        <time>2013-03-31T13:42:27Z</time>
      </trkpt>
      <trkpt lat="46.00553" lon="3.58174">
        <ele>667.5</ele>
        <time>2013-03-31T13:42:29Z</time>
      </trkpt>
      <trkpt lat="46.00561" lon="3.58197">
        <ele>666.4</ele>
        <time>2013-03-31T13:42:31Z</time>
      </trkpt>
      <trkpt lat="46.00571" lon="3.58223">
        <ele>665.34</ele>
        <time>2013-03-31T13:42:33Z</time>
      </trkpt>
      <trkpt lat="46.00584" lon="3.58244">
        <ele>664.31</ele>
        <time>2013-03-31T13:42:35Z</time>
      </trkpt>
      <trkpt lat="46.00597" lon="3.58266">
        <ele>662.28</ele>
        <time>2013-03-31T13:42:38Z</time>
      </trkpt>
      <trkpt lat="46.00604" lon="3.58294">
        <ele>655.32</ele>
        <time>2013-03-31T13:43:33Z</time>
      </trkpt>
      <trkpt lat="46.00612" lon="3.58317">
        <ele>651.3</ele>
        <time>2013-03-31T13:43:36Z</time>
      </trkpt>
      <trkpt lat="46.00618" lon="3.58347">
        <ele>648.31</ele>
        <time>2013-03-31T13:43:39Z</time>
      </trkpt>
      <trkpt lat="46.00624" lon="3.5838">
        <ele>645.89</ele>
        <time>2013-03-31T13:43:42Z</time>
      </trkpt>
      <trkpt lat="46.0063" lon="3.58412">
        <ele>644.1</ele>
        <time>2013-03-31T13:43:45Z</time>
      </trkpt>
      <trkpt lat="46.00642" lon="3.5844">
        <ele>642.63</ele>
        <time>2013-03-31T13:43:48Z</time>
      </trkpt>
      <trkpt lat="46.00654" lon="3.58472">
        <ele>642.01</ele>
        <time>2013-03-31T13:43:51Z</time>
      </trkpt>
      <trkpt lat="46.00667" lon="3.58504">
        <ele>640.73</ele>
        <time>2013-03-31T13:43:54Z</time>
      </trkpt>
      <trkpt lat="46.00669" lon="3.58538">
        <ele>639.47</ele>
        <time>2013-03-31T13:43:57Z</time>
      </trkpt>
      <trkpt lat="46.0066" lon="3.58566">
        <ele>636.89</ele>
        <time>2013-03-31T13:44:01Z</time>
      </trkpt>
      <trkpt lat="46.00658" lon="3.58592">
        <ele>633.27</ele>
        <time>2013-03-31T13:44:07Z</time>
      </trkpt>
      <trkpt lat="46.0068" lon="3.58605">
        <ele>629.46</ele>
        <time>2013-03-31T13:44:11Z</time>
      </trkpt>
      <trkpt lat="46.00703" lon="3.58607">
        <ele>626.26</ele>
        <time>2013-03-31T13:44:14Z</time>
      </trkpt>
      <trkpt lat="46.00723" lon="3.58605">
        <ele>622.42</ele>
        <time>2013-03-31T13:44:17Z</time>
      </trkpt>
      <trkpt lat="46.00744" lon="3.58598">
        <ele>615.88</ele>
        <time>2013-03-31T13:44:21Z</time>
      </trkpt>
      <trkpt lat="46.00758" lon="3.58579">
        <ele>608.78</ele>
        <time>2013-03-31T13:44:25Z</time>
      </trkpt>
      <trkpt lat="46.00774" lon="3.58556">
        <ele>601.25</ele>
        <time>2013-03-31T13:44:30Z</time>
      </trkpt>
      <trkpt lat="46.00794" lon="3.58545">
        <ele>597.27</ele>
        <time>2013-03-31T13:44:33Z</time>
      </trkpt>
      <trkpt lat="46.00816" lon="3.58541">
        <ele>592.53</ele>
        <time>2013-03-31T13:44:37Z</time>
      </trkpt>
      <trkpt lat="46.00836" lon="3.58538">
        <ele>587.86</ele>
        <time>2013-03-31T13:44:41Z</time>
      </trkpt>
      <trkpt lat="46.00857" lon="3.58528">
        <ele>583.84</ele>
        <time>2013-03-31T13:44:45Z</time>
      </trkpt>
      <trkpt lat="46.00881" lon="3.58521">
        <ele>579.07</ele>
        <time>2013-03-31T13:44:49Z</time>
      </trkpt>
      <trkpt lat="46.00905" lon="3.58523">
        <ele>575.77</ele>
        <time>2013-03-31T13:44:52Z</time>
      </trkpt>
      <trkpt lat="46.00927" lon="3.58523">
        <ele>572.2</ele>
        <time>2013-03-31T13:44:56Z</time>
      </trkpt>
      <trkpt lat="46.0095" lon="3.58526">
        <ele>569.02</ele>
        <time>2013-03-31T13:45:00Z</time>
      </trkpt>
      <trkpt lat="46.00968" lon="3.58504">
        <ele>564.85</ele>
        <time>2013-03-31T13:45:06Z</time>
      </trkpt>
      <trkpt lat="46.00977" lon="3.5848">
        <ele>560.41</ele>
        <time>2013-03-31T13:45:09Z</time>
      </trkpt>
      <trkpt lat="46.00987" lon="3.58455">
        <ele>555.14</ele>
        <time>2013-03-31T13:45:13Z</time>
      </trkpt>
      <trkpt lat="46.01002" lon="3.58433">
        <ele>550.96</ele>
        <time>2013-03-31T13:45:18Z</time>
      </trkpt>
      <trkpt lat="46.01004" lon="3.58407">
        <ele>549.12</ele>
        <time>2013-03-31T13:45:23Z</time>
      </trkpt>
      <trkpt lat="46.01004" lon="3.5838">
        <ele>547.68</ele>
        <time>2013-03-31T13:45:28Z</time>
      </trkpt>
      <trkpt lat="46.01007" lon="3.58352">
        <ele>546.24</ele>
        <time>2013-03-31T13:45:33Z</time>
      </trkpt>
      <trkpt lat="46.01006" lon="3.58322">
        <ele>543.48</ele>
        <time>2013-03-31T13:45:42Z</time>
      </trkpt>
      <trkpt lat="46.00998" lon="3.58294">
        <ele>533.74</ele>
        <time>2013-03-31T13:45:48Z</time>
      </trkpt>
      <trkpt lat="46.00998" lon="3.58264">
        <ele>530.55</ele>
        <time>2013-03-31T13:45:53Z</time>
      </trkpt>
      <trkpt lat="46.00994" lon="3.58236">
        <ele>529.69</ele>
        <time>2013-03-31T13:46:00Z</time>
      </trkpt>
      <trkpt lat="46.00989" lon="3.58208">
        <ele>528.8</ele>
        <time>2013-03-31T13:46:08Z</time>
      </trkpt>
      <trkpt lat="46.00987" lon="3.58176">
        <ele>527.9</ele>
        <time>2013-03-31T13:46:15Z</time>
      </trkpt>
      <trkpt lat="46.00986" lon="3.58148">
        <ele>527.59</ele>
        <time>2013-03-31T13:46:23Z</time>
      </trkpt>
      <trkpt lat="46.00985" lon="3.58116">
        <ele>528.39</ele>
        <time>2013-03-31T13:46:29Z</time>
      </trkpt>
      <trkpt lat="46.00993" lon="3.5809">
        <ele>530.2</ele>
        <time>2013-03-31T13:46:33Z</time>
      </trkpt>
      <trkpt lat="46.0101" lon="3.58071">
        <ele>532.74</ele>
        <time>2013-03-31T13:46:41Z</time>
      </trkpt>
      <trkpt lat="46.01022" lon="3.58049">
        <ele>535.77</ele>
        <time>2013-03-31T13:46:51Z</time>
      </trkpt>
      <trkpt lat="46.01037" lon="3.5803">
        <ele>539.98</ele>
        <time>2013-03-31T13:47:03Z</time>
      </trkpt>
      <trkpt lat="46.01055" lon="3.58013">
        <ele>543.37</ele>
        <time>2013-03-31T13:47:12Z</time>
      </trkpt>
      <trkpt lat="46.01071" lon="3.57993">
        <ele>545.16</ele>
        <time>2013-03-31T13:47:19Z</time>
      </trkpt>
      <trkpt lat="46.01089" lon="3.57996">
        <ele>546.45</ele>
        <time>2013-03-31T13:47:27Z</time>
      </trkpt>
      <trkpt lat="46.01104" lon="3.57972">
        <ele>548.56</ele>
        <time>2013-03-31T13:47:37Z</time>
      </trkpt>
      <trkpt lat="46.01119" lon="3.57948">
        <ele>551.51</ele>
        <time>2013-03-31T13:47:52Z</time>
      </trkpt>
      <trkpt lat="46.01138" lon="3.57942">
        <ele>555.54</ele>
        <time>2013-03-31T13:49:20Z</time>
      </trkpt>
      <trkpt lat="46.01144" lon="3.57916">
        <ele>557.06</ele>
        <time>2013-03-31T13:49:52Z</time>
      </trkpt>
      <trkpt lat="46.01151" lon="3.57884">
        <ele>560.51</ele>
        <time>2013-03-31T13:49:57Z</time>
      </trkpt>
      <trkpt lat="46.01153" lon="3.57852">
        <ele>564.29</ele>
        <time>2013-03-31T13:50:01Z</time>
      </trkpt>
      <trkpt lat="46.01153" lon="3.57817">
        <ele>566.96</ele>
        <time>2013-03-31T13:50:05Z</time>
      </trkpt>
      <trkpt lat="46.01153" lon="3.57787">
        <ele>568.27</ele>
        <time>2013-03-31T13:50:11Z</time>
      </trkpt>
      <trkpt lat="46.01156" lon="3.57759">
        <ele>567.75</ele>
        <time>2013-03-31T13:50:18Z</time>
      </trkpt>
      <trkpt lat="46.01164" lon="3.57736">
        <ele>567.58</ele>
        <time>2013-03-31T13:50:25Z</time>
      </trkpt>
      <trkpt lat="46.01174" lon="3.57708">
        <ele>567.56</ele>
        <time>2013-03-31T13:50:33Z</time>
      </trkpt>
      <trkpt lat="46.01182" lon="3.57669">
        <ele>567.55</ele>
        <time>2013-03-31T13:50:43Z</time>
      </trkpt>
      <trkpt lat="46.01179" lon="3.57631">
        <ele>567.72</ele>
        <time>2013-03-31T13:50:55Z</time>
      </trkpt>
      <trkpt lat="46.01188" lon="3.57592">
        <ele>567.8</ele>
        <time>2013-03-31T13:52:19Z</time>
      </trkpt>
      <trkpt lat="46.01203" lon="3.57566">
        <ele>572.88</ele>
        <time>2013-03-31T13:52:21Z</time>
      </trkpt>
      <trkpt lat="46.0122" lon="3.57547">
        <ele>578.74</ele>
        <time>2013-03-31T13:52:23Z</time>
      </trkpt>
      <trkpt lat="46.01238" lon="3.57534">
        <ele>583.72</ele>
        <time>2013-03-31T13:52:25Z</time>
      </trkpt>
      <trkpt lat="46.01258" lon="3.57526">
        <ele>586.96</ele>
        <time>2013-03-31T13:52:27Z</time>
      </trkpt>
      <trkpt lat="46.01276" lon="3.57519">
        <ele>588.97</ele>
        <time>2013-03-31T13:52:29Z</time>
      </trkpt>
      <trkpt lat="46.01301" lon="3.57517">
        <ele>589.63</ele>
        <time>2013-03-31T13:52:32Z</time>
      </trkpt>
      <trkpt lat="46.01324" lon="3.57508">
        <ele>587.49</ele>
        <time>2013-03-31T13:52:35Z</time>
      </trkpt>
      <trkpt lat="46.01347" lon="3.57493">
        <ele>583.26</ele>
        <time>2013-03-31T13:52:38Z</time>
      </trkpt>
      <trkpt lat="46.01368" lon="3.57472">
        <ele>578.01</ele>
        <time>2013-03-31T13:52:41Z</time>
      </trkpt>
      <trkpt lat="46.01386" lon="3.57444">
        <ele>573.15</ele>
        <time>2013-03-31T13:52:44Z</time>
      </trkpt>
      <trkpt lat="46.01393" lon="3.57418">
        <ele>568.21</ele>
        <time>2013-03-31T13:52:47Z</time>
      </trkpt>
      <trkpt lat="46.01412" lon="3.57408">
        <ele>562.14</ele>
        <time>2013-03-31T13:52:51Z</time>
      </trkpt>
      <trkpt lat="46.01429" lon="3.57431">
        <ele>557.97</ele>
        <time>2013-03-31T13:52:54Z</time>
      </trkpt>
      <trkpt lat="46.01451" lon="3.57448">
        <ele>554.34</ele>
        <time>2013-03-31T13:52:57Z</time>
      </trkpt>
      <trkpt lat="46.01472" lon="3.5747">
        <ele>550.89</ele>
        <time>2013-03-31T13:53:00Z</time>
      </trkpt>
      <trkpt lat="46.01496" lon="3.57481">
        <ele>547.11</ele>
        <time>2013-03-31T13:53:03Z</time>
      </trkpt>
      <trkpt lat="46.01522" lon="3.57468">
        <ele>543.79</ele>
        <time>2013-03-31T13:53:06Z</time>
      </trkpt>
      <trkpt lat="46.0154" lon="3.57457">
        <ele>541.44</ele>
        <time>2013-03-31T13:53:08Z</time>
      </trkpt>
      <trkpt lat="46.01558" lon="3.57446">
        <ele>539.49</ele>
        <time>2013-03-31T13:53:10Z</time>
      </trkpt>
      <trkpt lat="46.01577" lon="3.57435">
        <ele>537.52</ele>
        <time>2013-03-31T13:53:12Z</time>
      </trkpt>
      <trkpt lat="46.01599" lon="3.5742">
        <ele>535.12</ele>
        <time>2013-03-31T13:53:15Z</time>
      </trkpt>
      <trkpt lat="46.01613" lon="3.57397">
        <ele>532.12</ele>
        <time>2013-03-31T13:53:18Z</time>
      </trkpt>
      <trkpt lat="46.01633" lon="3.57386">
        <ele>528.54</ele>
        <time>2013-03-31T13:53:21Z</time>
      </trkpt>
      <trkpt lat="46.01657" lon="3.57384">
        <ele>523.7</ele>
        <time>2013-03-31T13:53:24Z</time>
      </trkpt>
      <trkpt lat="46.01678" lon="3.5738">
        <ele>518.77</ele>
        <time>2013-03-31T13:53:27Z</time>
      </trkpt>
      <trkpt lat="46.01701" lon="3.57373">
        <ele>514.24</ele>
        <time>2013-03-31T13:53:30Z</time>
      </trkpt>
      <trkpt lat="46.0172" lon="3.5736">
        <ele>510.01</ele>
        <time>2013-03-31T13:53:33Z</time>
      </trkpt>
      <trkpt lat="46.01733" lon="3.57339">
        <ele>505.45</ele>
        <time>2013-03-31T13:53:37Z</time>
      </trkpt>
      <trkpt lat="46.01746" lon="3.57315">
        <ele>501.67</ele>
        <time>2013-03-31T13:53:43Z</time>
      </trkpt>
      <trkpt lat="46.01749" lon="3.57287">
        <ele>500.82</ele>
        <time>2013-03-31T13:53:48Z</time>
      </trkpt>
      <trkpt lat="46.01751" lon="3.5726">
        <ele>499.28</ele>
        <time>2013-03-31T13:53:53Z</time>
      </trkpt>
      <trkpt lat="46.01759" lon="3.57234">
        <ele>497.86</ele>
        <time>2013-03-31T13:53:59Z</time>
      </trkpt>
      <trkpt lat="46.01778" lon="3.57227">
        <ele>496.39</ele>
        <time>2013-03-31T13:54:10Z</time>
      </trkpt>
      <trkpt lat="46.01797" lon="3.57251">
        <ele>493.8</ele>
        <time>2013-03-31T13:55:22Z</time>
      </trkpt>
      <trkpt lat="46.01809" lon="3.57277">
        <ele>489.39</ele>
        <time>2013-03-31T13:55:25Z</time>
      </trkpt>
      <trkpt lat="46.01821" lon="3.57309">
        <ele>484.89</ele>
        <time>2013-03-31T13:55:28Z</time>
      </trkpt>
      <trkpt lat="46.01831" lon="3.57341">
        <ele>480.1</ele>
        <time>2013-03-31T13:55:31Z</time>
      </trkpt>
      <trkpt lat="46.01837" lon="3.57373">
        <ele>475.96</ele>
        <time>2013-03-31T13:55:34Z</time>
      </trkpt>
      <trkpt lat="46.01839" lon="3.5741">
        <ele>472.15</ele>
        <time>2013-03-31T13:55:37Z</time>
      </trkpt>
      <trkpt lat="46.01847" lon="3.57438">
        <ele>469.05</ele>
        <time>2013-03-31T13:55:40Z</time>
      </trkpt>
      <trkpt lat="46.01865" lon="3.57457">
        <ele>465.56</ele>
        <time>2013-03-31T13:55:45Z</time>
      </trkpt>
      <trkpt lat="46.01882" lon="3.57468">
        <ele>463.07</ele>
        <time>2013-03-31T13:55:49Z</time>
      </trkpt>
      <trkpt lat="46.01902" lon="3.57481">
        <ele>460.03</ele>
        <time>2013-03-31T13:55:54Z</time>
      </trkpt>
      <trkpt lat="46.01907" lon="3.57506">
        <ele>458.82</ele>
        <time>2013-03-31T13:56:00Z</time>
      </trkpt>
      <trkpt lat="46.01898" lon="3.57534">
        <ele>458.6</ele>
        <time>2013-03-31T13:56:06Z</time>
      </trkpt>
      <trkpt lat="46.0189" lon="3.5756">
        <ele>458.56</ele>
        <time>2013-03-31T13:56:12Z</time>
      </trkpt>
      <trkpt lat="46.01881" lon="3.57584">
        <ele>458.12</ele>
        <time>2013-03-31T13:56:17Z</time>
      </trkpt>
      <trkpt lat="46.01868" lon="3.57605">
        <ele>458.07</ele>
        <time>2013-03-31T13:56:24Z</time>
      </trkpt>
      <trkpt lat="46.01875" lon="3.57639">
        <ele>458.54</ele>
        <time>2013-03-31T13:56:36Z</time>
      </trkpt>
      <trkpt lat="46.01894" lon="3.57646">
        <ele>459.37</ele>
        <time>2013-03-31T13:56:45Z</time>
      </trkpt>
      <trkpt lat="46.0192" lon="3.5765">
        <ele>460.37</ele>
        <time>2013-03-31T13:57:00Z</time>
      </trkpt>
      <trkpt lat="46.01938" lon="3.57659">
        <ele>461.22</ele>
        <time>2013-03-31T13:57:09Z</time>
      </trkpt>
      <trkpt lat="46.01956" lon="3.57667">
        <ele>462.1</ele>
        <time>2013-03-31T13:57:17Z</time>
      </trkpt>
      <trkpt lat="46.01974" lon="3.57682">
        <ele>463.46</ele>
        <time>2013-03-31T13:57:27Z</time>
      </trkpt>
      <trkpt lat="46.01999" lon="3.57682">
        <ele>466.06</ele>
        <time>2013-03-31T13:57:41Z</time>
      </trkpt>
      <trkpt lat="46.02019" lon="3.57674">
        <ele>468.35</ele>
        <time>2013-03-31T13:57:50Z</time>
      </trkpt>
      <trkpt lat="46.02044" lon="3.57667">
        <ele>471.38</ele>
        <time>2013-03-31T13:58:01Z</time>
      </trkpt>
      <trkpt lat="46.02064" lon="3.57661">
        <ele>473.54</ele>
        <time>2013-03-31T13:58:10Z</time>
      </trkpt>
      <trkpt lat="46.02087" lon="3.57659">
        <ele>475.68</ele>
        <time>2013-03-31T13:58:17Z</time>
      </trkpt>
      <trkpt lat="46.02107" lon="3.57654">
        <ele>478.96</ele>
        <time>2013-03-31T13:58:25Z</time>
      </trkpt>
      <trkpt lat="46.02128" lon="3.57648">
        <ele>482.21</ele>
        <time>2013-03-31T13:58:34Z</time>
      </trkpt>
      <trkpt lat="46.02152" lon="3.57631">
        <ele>486.69</ele>
        <time>2013-03-31T13:58:47Z</time>
      </trkpt>
      <trkpt lat="46.02167" lon="3.57614">
        <ele>491.05</ele>
        <time>2013-03-31T13:58:59Z</time>
      </trkpt>
      <trkpt lat="46.02186" lon="3.57611">
        <ele>495.31</ele>
        <time>2013-03-31T13:59:12Z</time>
      </trkpt>
      <trkpt lat="46.02204" lon="3.57618">
        <ele>498.55</ele>
        <time>2013-03-31T13:59:26Z</time>
      </trkpt>
      <trkpt lat="46.02221" lon="3.57629">
        <ele>501.47</ele>
        <time>2013-03-31T13:59:39Z</time>
      </trkpt>
      <trkpt lat="46.02238" lon="3.57637">
        <ele>503.7</ele>
        <time>2013-03-31T13:59:47Z</time>
      </trkpt>
      <trkpt lat="46.02255" lon="3.5765">
        <ele>506.09</ele>
        <time>2013-03-31T13:59:57Z</time>
      </trkpt>
      <trkpt lat="46.02272" lon="3.57665">
        <ele>509.07</ele>
        <time>2013-03-31T14:00:08Z</time>
      </trkpt>
      <trkpt lat="46.0229" lon="3.57676">
        <ele>511.25</ele>
        <time>2013-03-31T14:00:19Z</time>
      </trkpt>
      <trkpt lat="46.02308" lon="3.5768">
        <ele>513.11</ele>
        <time>2013-03-31T14:00:28Z</time>
      </trkpt>
      <trkpt lat="46.02327" lon="3.57678">
        <ele>515.62</ele>
        <time>2013-03-31T14:00:40Z</time>
      </trkpt>
      <trkpt lat="46.02346" lon="3.57674">
        <ele>517.2</ele>
        <time>2013-03-31T14:00:51Z</time>
      </trkpt>
      <trkpt lat="46.02365" lon="3.57671">
        <ele>518.87</ele>
        <time>2013-03-31T14:01:01Z</time>
      </trkpt>
      <trkpt lat="46.02384" lon="3.57665">
        <ele>521</ele>
        <time>2013-03-31T14:01:12Z</time>
      </trkpt>
      <trkpt lat="46.02402" lon="3.57659">
        <ele>523.1</ele>
        <time>2013-03-31T14:01:21Z</time>
      </trkpt>
      <trkpt lat="46.02421" lon="3.57652">
        <ele>525.34</ele>
        <time>2013-03-31T14:01:29Z</time>
      </trkpt>
      <trkpt lat="46.02441" lon="3.5765">
        <ele>527.27</ele>
        <time>2013-03-31T14:01:35Z</time>
      </trkpt>
      <trkpt lat="46.02459" lon="3.5765">
        <ele>529.18</ele>
        <time>2013-03-31T14:01:40Z</time>
      </trkpt>
      <trkpt lat="46.02479" lon="3.5765">
        <ele>531.65</ele>
        <time>2013-03-31T14:01:46Z</time>
      </trkpt>
      <trkpt lat="46.02497" lon="3.57654">
        <ele>534.64</ele>
        <time>2013-03-31T14:01:53Z</time>
      </trkpt>
      <trkpt lat="46.02515" lon="3.57661">
        <ele>537.5</ele>
        <time>2013-03-31T14:02:00Z</time>
      </trkpt>
      <trkpt lat="46.02534" lon="3.57671">
        <ele>540.51</ele>
        <time>2013-03-31T14:02:08Z</time>
      </trkpt>
      <trkpt lat="46.02552" lon="3.57682">
        <ele>543.52</ele>
        <time>2013-03-31T14:02:16Z</time>
      </trkpt>
      <trkpt lat="46.0257" lon="3.57687">
        <ele>546.25</ele>
        <time>2013-03-31T14:02:24Z</time>
      </trkpt>
      <trkpt lat="46.0259" lon="3.57687">
        <ele>548.58</ele>
        <time>2013-03-31T14:02:31Z</time>
      </trkpt>
      <trkpt lat="46.02662" lon="3.57579">
        <ele>550.83</ele>
        <time>2013-03-31T14:02:35Z</time>
      </trkpt>
      <trkpt lat="46.02638" lon="3.57601">
        <ele>552.26</ele>
        <time>2013-03-31T14:02:36Z</time>
      </trkpt>
      <trkpt lat="46.0267" lon="3.57671">
        <ele>553.33</ele>
        <time>2013-03-31T14:02:58Z</time>
      </trkpt>
      <trkpt lat="46.02689" lon="3.57671">
        <ele>558.22</ele>
        <time>2013-03-31T14:03:07Z</time>
      </trkpt>
      <trkpt lat="46.02706" lon="3.5768">
        <ele>561.23</ele>
        <time>2013-03-31T14:03:20Z</time>
      </trkpt>
      <trkpt lat="46.02695" lon="3.57659">
        <ele>570.99</ele>
        <time>2013-03-31T14:07:39Z</time>
      </trkpt>
      <trkpt lat="46.0271" lon="3.57639">
        <ele>572.4</ele>
        <time>2013-03-31T14:07:51Z</time>
      </trkpt>
      <trkpt lat="46.02723" lon="3.5762">
        <ele>572.95</ele>
        <time>2013-03-31T14:07:56Z</time>
      </trkpt>
      <trkpt lat="46.02737" lon="3.57599">
        <ele>572.97</ele>
        <time>2013-03-31T14:08:01Z</time>
      </trkpt>
      <trkpt lat="46.02752" lon="3.57577">
        <ele>572.65</ele>
        <time>2013-03-31T14:08:06Z</time>
      </trkpt>
      <trkpt lat="46.02765" lon="3.57556">
        <ele>572.58</ele>
        <time>2013-03-31T14:08:11Z</time>
      </trkpt>
      <trkpt lat="46.02775" lon="3.57581">
        <ele>571.87</ele>
        <time>2013-03-31T14:08:21Z</time>
      </trkpt>
      <trkpt lat="46.02775" lon="3.57611">
        <ele>571.61</ele>
        <time>2013-03-31T14:08:27Z</time>
      </trkpt>
      <trkpt lat="46.02782" lon="3.57641">
        <ele>570.69</ele>
        <time>2013-03-31T14:08:34Z</time>
      </trkpt>
      <trkpt lat="46.02802" lon="3.5765">
        <ele>569.76</ele>
        <time>2013-03-31T14:08:40Z</time>
      </trkpt>
      <trkpt lat="46.02822" lon="3.57648">
        <ele>569.01</ele>
        <time>2013-03-31T14:08:46Z</time>
      </trkpt>
      <trkpt lat="46.0284" lon="3.57646">
        <ele>568.66</ele>
        <time>2013-03-31T14:08:51Z</time>
      </trkpt>
      <trkpt lat="46.02861" lon="3.57639">
        <ele>569.34</ele>
        <time>2013-03-31T14:08:57Z</time>
      </trkpt>
      <trkpt lat="46.02881" lon="3.57637">
        <ele>569.51</ele>
        <time>2013-03-31T14:09:03Z</time>
      </trkpt>
      <trkpt lat="46.02903" lon="3.57633">
        <ele>569.54</ele>
        <time>2013-03-31T14:09:08Z</time>
      </trkpt>
      <trkpt lat="46.02924" lon="3.57633">
        <ele>569.55</ele>
        <time>2013-03-31T14:09:12Z</time>
      </trkpt>
      <trkpt lat="46.02946" lon="3.57644">
        <ele>569.11</ele>
        <time>2013-03-31T14:09:16Z</time>
      </trkpt>
      <trkpt lat="46.02966" lon="3.57644">
        <ele>568.48</ele>
        <time>2013-03-31T14:09:20Z</time>
      </trkpt>
      <trkpt lat="46.0298" lon="3.57624">
        <ele>567.85</ele>
        <time>2013-03-31T14:09:24Z</time>
      </trkpt>
      <trkpt lat="46.02993" lon="3.57601">
        <ele>567.07</ele>
        <time>2013-03-31T14:09:28Z</time>
      </trkpt>
      <trkpt lat="46.03008" lon="3.57577">
        <ele>567.11</ele>
        <time>2013-03-31T14:09:33Z</time>
      </trkpt>
      <trkpt lat="46.03028" lon="3.57562">
        <ele>567.99</ele>
        <time>2013-03-31T14:09:37Z</time>
      </trkpt>
      <trkpt lat="46.03049" lon="3.5756">
        <ele>567.88</ele>
        <time>2013-03-31T14:09:40Z</time>
      </trkpt>
      <trkpt lat="46.03072" lon="3.5756">
        <ele>567.69</ele>
        <time>2013-03-31T14:09:43Z</time>
      </trkpt>
      <trkpt lat="46.03094" lon="3.57562">
        <ele>567.61</ele>
        <time>2013-03-31T14:09:46Z</time>
      </trkpt>
      <trkpt lat="46.03116" lon="3.57566">
        <ele>567.58</ele>
        <time>2013-03-31T14:09:49Z</time>
      </trkpt>
      <trkpt lat="46.03136" lon="3.57569">
        <ele>567.56</ele>
        <time>2013-03-31T14:09:52Z</time>
      </trkpt>
      <trkpt lat="46.03156" lon="3.57571">
        <ele>567.56</ele>
        <time>2013-03-31T14:09:55Z</time>
      </trkpt>
      <trkpt lat="46.03175" lon="3.57571">
        <ele>566.98</ele>
        <time>2013-03-31T14:09:58Z</time>
      </trkpt>
      <trkpt lat="46.03194" lon="3.57573">
        <ele>566.73</ele>
        <time>2013-03-31T14:10:01Z</time>
      </trkpt>
      <trkpt lat="46.03216" lon="3.57575">
        <ele>566.38</ele>
        <time>2013-03-31T14:10:04Z</time>
      </trkpt>
      <trkpt lat="46.03237" lon="3.57575">
        <ele>565.9</ele>
        <time>2013-03-31T14:10:07Z</time>
      </trkpt>
      <trkpt lat="46.0326" lon="3.57577">
        <ele>565.12</ele>
        <time>2013-03-31T14:10:10Z</time>
      </trkpt>
      <trkpt lat="46.03284" lon="3.57579">
        <ele>564.36</ele>
        <time>2013-03-31T14:10:13Z</time>
      </trkpt>
      <trkpt lat="46.03308" lon="3.57579">
        <ele>563.64</ele>
        <time>2013-03-31T14:10:16Z</time>
      </trkpt>
      <trkpt lat="46.0333" lon="3.57579">
        <ele>562.76</ele>
        <time>2013-03-31T14:10:19Z</time>
      </trkpt>
      <trkpt lat="46.03353" lon="3.57579">
        <ele>561.63</ele>
        <time>2013-03-31T14:10:22Z</time>
      </trkpt>
      <trkpt lat="46.03374" lon="3.57577">
        <ele>560.57</ele>
        <time>2013-03-31T14:10:25Z</time>
      </trkpt>
      <trkpt lat="46.03398" lon="3.57577">
        <ele>559.15</ele>
        <time>2013-03-31T14:10:28Z</time>
      </trkpt>
      <trkpt lat="46.03425" lon="3.57584">
        <ele>557.79</ele>
        <time>2013-03-31T14:10:31Z</time>
      </trkpt>
      <trkpt lat="46.03447" lon="3.57586">
        <ele>557</ele>
        <time>2013-03-31T14:10:33Z</time>
      </trkpt>
      <trkpt lat="46.03475" lon="3.57586">
        <ele>556.37</ele>
        <time>2013-03-31T14:10:35Z</time>
      </trkpt>
      <trkpt lat="46.03501" lon="3.57586">
        <ele>555.57</ele>
        <time>2013-03-31T14:10:37Z</time>
      </trkpt>
      <trkpt lat="46.03529" lon="3.57586">
        <ele>555.13</ele>
        <time>2013-03-31T14:10:39Z</time>
      </trkpt>
      <trkpt lat="46.03558" lon="3.57584">
        <ele>554.63</ele>
        <time>2013-03-31T14:10:41Z</time>
      </trkpt>
      <trkpt lat="46.03584" lon="3.57581">
        <ele>554.16</ele>
        <time>2013-03-31T14:10:43Z</time>
      </trkpt>
      <trkpt lat="46.03607" lon="3.57581">
        <ele>553.89</ele>
        <time>2013-03-31T14:10:45Z</time>
      </trkpt>
      <trkpt lat="46.03634" lon="3.57579">
        <ele>553.49</ele>
        <time>2013-03-31T14:10:47Z</time>
      </trkpt>
      <trkpt lat="46.0366" lon="3.57575">
        <ele>553.08</ele>
        <time>2013-03-31T14:10:49Z</time>
      </trkpt>
      <trkpt lat="46.03685" lon="3.57569">
        <ele>552.41</ele>
        <time>2013-03-31T14:10:51Z</time>
      </trkpt>
      <trkpt lat="46.03706" lon="3.5756">
        <ele>552.04</ele>
        <time>2013-03-31T14:10:53Z</time>
      </trkpt>
      <trkpt lat="46.0373" lon="3.57553">
        <ele>551.39</ele>
        <time>2013-03-31T14:10:55Z</time>
      </trkpt>
      <trkpt lat="46.03752" lon="3.57545">
        <ele>550.34</ele>
        <time>2013-03-31T14:10:57Z</time>
      </trkpt>
      <trkpt lat="46.03777" lon="3.5753">
        <ele>549.12</ele>
        <time>2013-03-31T14:10:59Z</time>
      </trkpt>
      <trkpt lat="46.038" lon="3.57517">
        <ele>547.75</ele>
        <time>2013-03-31T14:11:01Z</time>
      </trkpt>
      <trkpt lat="46.0382" lon="3.57506">
        <ele>546.35</ele>
        <time>2013-03-31T14:11:03Z</time>
      </trkpt>
      <trkpt lat="46.03839" lon="3.57504">
        <ele>544.88</ele>
        <time>2013-03-31T14:11:05Z</time>
      </trkpt>
      <trkpt lat="46.03859" lon="3.57502">
        <ele>543.86</ele>
        <time>2013-03-31T14:11:07Z</time>
      </trkpt>
      <trkpt lat="46.03881" lon="3.57498">
        <ele>542.85</ele>
        <time>2013-03-31T14:11:09Z</time>
      </trkpt>
      <trkpt lat="46.03902" lon="3.57487">
        <ele>541.85</ele>
        <time>2013-03-31T14:11:11Z</time>
      </trkpt>
      <trkpt lat="46.03924" lon="3.57474">
        <ele>540.59</ele>
        <time>2013-03-31T14:11:13Z</time>
      </trkpt>
      <trkpt lat="46.03946" lon="3.57466">
        <ele>539.01</ele>
        <time>2013-03-31T14:11:15Z</time>
      </trkpt>
      <trkpt lat="46.03968" lon="3.57478">
        <ele>537.5</ele>
        <time>2013-03-31T14:11:17Z</time>
      </trkpt>
      <trkpt lat="46.03987" lon="3.57498">
        <ele>536.21</ele>
        <time>2013-03-31T14:11:19Z</time>
      </trkpt>
      <trkpt lat="46.04005" lon="3.57511">
        <ele>535.05</ele>
        <time>2013-03-31T14:11:21Z</time>
      </trkpt>
      <trkpt lat="46.04025" lon="3.57515">
        <ele>533.96</ele>
        <time>2013-03-31T14:11:23Z</time>
      </trkpt>
      <trkpt lat="46.04044" lon="3.57511">
        <ele>532.9</ele>
        <time>2013-03-31T14:11:25Z</time>
      </trkpt>
      <trkpt lat="46.04066" lon="3.575">
        <ele>531.38</ele>
        <time>2013-03-31T14:11:27Z</time>
      </trkpt>
      <trkpt lat="46.04094" lon="3.57487">
        <ele>529.45</ele>
        <time>2013-03-31T14:11:29Z</time>
      </trkpt>
      <trkpt lat="46.04119" lon="3.57476">
        <ele>526.81</ele>
        <time>2013-03-31T14:11:31Z</time>
      </trkpt>
      <trkpt lat="46.04143" lon="3.57463">
        <ele>523.57</ele>
        <time>2013-03-31T14:11:33Z</time>
      </trkpt>
      <trkpt lat="46.04166" lon="3.5745">
        <ele>520</ele>
        <time>2013-03-31T14:11:35Z</time>
      </trkpt>
      <trkpt lat="46.04186" lon="3.57431">
        <ele>515.74</ele>
        <time>2013-03-31T14:11:37Z</time>
      </trkpt>
      <trkpt lat="46.042" lon="3.57408">
        <ele>510.97</ele>
        <time>2013-03-31T14:11:39Z</time>
      </trkpt>
      <trkpt lat="46.04218" lon="3.57386">
        <ele>506.35</ele>
        <time>2013-03-31T14:11:41Z</time>
      </trkpt>
      <trkpt lat="46.04223" lon="3.5736">
        <ele>502</ele>
        <time>2013-03-31T14:11:43Z</time>
      </trkpt>
      <trkpt lat="46.04223" lon="3.5733">
        <ele>497.81</ele>
        <time>2013-03-31T14:11:45Z</time>
      </trkpt>
      <trkpt lat="46.04223" lon="3.57296">
        <ele>494.38</ele>
        <time>2013-03-31T14:11:47Z</time>
      </trkpt>
      <trkpt lat="46.04231" lon="3.57262">
        <ele>490.89</ele>
        <time>2013-03-31T14:11:49Z</time>
      </trkpt>
      <trkpt lat="46.04241" lon="3.57234">
        <ele>487.87</ele>
        <time>2013-03-31T14:11:51Z</time>
      </trkpt>
      <trkpt lat="46.04252" lon="3.57208">
        <ele>485.29</ele>
        <time>2013-03-31T14:11:53Z</time>
      </trkpt>
      <trkpt lat="46.0427" lon="3.57184">
        <ele>482.12</ele>
        <time>2013-03-31T14:11:56Z</time>
      </trkpt>
      <trkpt lat="46.04289" lon="3.57176">
        <ele>479.37</ele>
        <time>2013-03-31T14:11:59Z</time>
      </trkpt>
      <trkpt lat="46.04314" lon="3.57189">
        <ele>474.69</ele>
        <time>2013-03-31T14:12:08Z</time>
      </trkpt>
      <trkpt lat="46.04331" lon="3.57204">
        <ele>473.13</ele>
        <time>2013-03-31T14:12:15Z</time>
      </trkpt>
      <trkpt lat="46.04353" lon="3.57214">
        <ele>470.45</ele>
        <time>2013-03-31T14:12:24Z</time>
      </trkpt>
      <trkpt lat="46.04371" lon="3.57212">
        <ele>463.38</ele>
        <time>2013-03-31T14:12:42Z</time>
      </trkpt>
      <trkpt lat="46.04387" lon="3.57197">
        <ele>460.91</ele>
        <time>2013-03-31T14:12:52Z</time>
      </trkpt>
      <trkpt lat="46.04406" lon="3.57172">
        <ele>458.96</ele>
        <time>2013-03-31T14:13:02Z</time>
      </trkpt>
      <trkpt lat="46.04419" lon="3.5715">
        <ele>457.94</ele>
        <time>2013-03-31T14:13:08Z</time>
      </trkpt>
      <trkpt lat="46.04434" lon="3.57126">
        <ele>457.62</ele>
        <time>2013-03-31T14:13:14Z</time>
      </trkpt>
      <trkpt lat="46.04448" lon="3.57103">
        <ele>456.74</ele>
        <time>2013-03-31T14:13:20Z</time>
      </trkpt>
      <trkpt lat="46.04466" lon="3.57084">
        <ele>456.04</ele>
        <time>2013-03-31T14:13:24Z</time>
      </trkpt>
      <trkpt lat="46.04485" lon="3.57075">
        <ele>455.76</ele>
        <time>2013-03-31T14:13:27Z</time>
      </trkpt>
      <trkpt lat="46.04505" lon="3.57073">
        <ele>455.2</ele>
        <time>2013-03-31T14:13:30Z</time>
      </trkpt>
      <trkpt lat="46.04526" lon="3.57071">
        <ele>454.71</ele>
        <time>2013-03-31T14:13:35Z</time>
      </trkpt>
      <trkpt lat="46.04546" lon="3.5706">
        <ele>454.01</ele>
        <time>2013-03-31T14:13:41Z</time>
      </trkpt>
      <trkpt lat="46.04563" lon="3.57041">
        <ele>454.42</ele>
        <time>2013-03-31T14:13:46Z</time>
      </trkpt>
      <trkpt lat="46.04575" lon="3.57019">
        <ele>454.5</ele>
        <time>2013-03-31T14:13:49Z</time>
      </trkpt>
      <trkpt lat="46.04586" lon="3.56991">
        <ele>453.7</ele>
        <time>2013-03-31T14:13:52Z</time>
      </trkpt>
      <trkpt lat="46.04601" lon="3.5697">
        <ele>452.6</ele>
        <time>2013-03-31T14:13:55Z</time>
      </trkpt>
      <trkpt lat="46.04619" lon="3.56963">
        <ele>451.74</ele>
        <time>2013-03-31T14:13:58Z</time>
      </trkpt>
      <trkpt lat="46.04637" lon="3.56961">
        <ele>450.26</ele>
        <time>2013-03-31T14:14:03Z</time>
      </trkpt>
      <trkpt lat="46.04656" lon="3.56959">
        <ele>449.65</ele>
        <time>2013-03-31T14:14:10Z</time>
      </trkpt>
      <trkpt lat="46.04669" lon="3.56981">
        <ele>448.55</ele>
        <time>2013-03-31T14:16:00Z</time>
      </trkpt>
      <trkpt lat="46.04679" lon="3.57006">
        <ele>449.38</ele>
        <time>2013-03-31T14:16:03Z</time>
      </trkpt>
      <trkpt lat="46.0469" lon="3.57032">
        <ele>450.5</ele>
        <time>2013-03-31T14:16:06Z</time>
      </trkpt>
      <trkpt lat="46.04701" lon="3.5706">
        <ele>451.69</ele>
        <time>2013-03-31T14:16:09Z</time>
      </trkpt>
      <trkpt lat="46.04715" lon="3.57086">
        <ele>451.94</ele>
        <time>2013-03-31T14:16:12Z</time>
      </trkpt>
      <trkpt lat="46.04735" lon="3.57092">
        <ele>451.46</ele>
        <time>2013-03-31T14:16:15Z</time>
      </trkpt>
      <trkpt lat="46.04755" lon="3.57081">
        <ele>450.01</ele>
        <time>2013-03-31T14:16:19Z</time>
      </trkpt>
      <trkpt lat="46.04771" lon="3.57064">
        <ele>447.64</ele>
        <time>2013-03-31T14:16:23Z</time>
      </trkpt>
      <trkpt lat="46.04789" lon="3.57049">
        <ele>445.75</ele>
        <time>2013-03-31T14:16:26Z</time>
      </trkpt>
      <trkpt lat="46.04807" lon="3.57054">
        <ele>444.1</ele>
        <time>2013-03-31T14:16:28Z</time>
      </trkpt>
      <trkpt lat="46.04825" lon="3.57073">
        <ele>442.05</ele>
        <time>2013-03-31T14:16:30Z</time>
      </trkpt>
      <trkpt lat="46.04837" lon="3.57103">
        <ele>440.08</ele>
        <time>2013-03-31T14:16:32Z</time>
      </trkpt>
      <trkpt lat="46.04837" lon="3.57137">
        <ele>438.29</ele>
        <time>2013-03-31T14:16:34Z</time>
      </trkpt>
      <trkpt lat="46.04835" lon="3.57169">
        <ele>436.4</ele>
        <time>2013-03-31T14:16:36Z</time>
      </trkpt>
      <trkpt lat="46.04839" lon="3.57197">
        <ele>434.91</ele>
        <time>2013-03-31T14:16:38Z</time>
      </trkpt>
      <trkpt lat="46.0486" lon="3.57212">
        <ele>432.72</ele>
        <time>2013-03-31T14:16:41Z</time>
      </trkpt>
      <trkpt lat="46.0488" lon="3.57208">
        <ele>431.52</ele>
        <time>2013-03-31T14:16:43Z</time>
      </trkpt>
      <trkpt lat="46.04902" lon="3.57199">
        <ele>430.22</ele>
        <time>2013-03-31T14:16:45Z</time>
      </trkpt>
      <trkpt lat="46.04929" lon="3.57202">
        <ele>428.8</ele>
        <time>2013-03-31T14:16:47Z</time>
      </trkpt>
      <trkpt lat="46.04954" lon="3.57217">
        <ele>427.13</ele>
        <time>2013-03-31T14:16:49Z</time>
      </trkpt>
      <trkpt lat="46.04972" lon="3.57227">
        <ele>425.57</ele>
        <time>2013-03-31T14:16:51Z</time>
      </trkpt>
      <trkpt lat="46.04992" lon="3.57223">
        <ele>422.33</ele>
        <time>2013-03-31T14:16:56Z</time>
      </trkpt>
      <trkpt lat="46.04991" lon="3.57195">
        <ele>420.43</ele>
        <time>2013-03-31T14:16:58Z</time>
      </trkpt>
      <trkpt lat="46.04989" lon="3.57157">
        <ele>418.48</ele>
        <time>2013-03-31T14:17:00Z</time>
      </trkpt>
      <trkpt lat="46.04982" lon="3.57118">
        <ele>416.51</ele>
        <time>2013-03-31T14:17:02Z</time>
      </trkpt>
      <trkpt lat="46.04981" lon="3.57088">
        <ele>414.53</ele>
        <time>2013-03-31T14:17:04Z</time>
      </trkpt>
      <trkpt lat="46.05003" lon="3.57094">
        <ele>407.52</ele>
        <time>2013-03-31T14:17:09Z</time>
      </trkpt>
      <trkpt lat="46.05017" lon="3.57126">
        <ele>404.66</ele>
        <time>2013-03-31T14:17:11Z</time>
      </trkpt>
      <trkpt lat="46.05027" lon="3.57157">
        <ele>402.18</ele>
        <time>2013-03-31T14:17:13Z</time>
      </trkpt>
      <trkpt lat="46.05037" lon="3.57184">
        <ele>399.9</ele>
        <time>2013-03-31T14:17:15Z</time>
      </trkpt>
      <trkpt lat="46.05054" lon="3.57208">
        <ele>397.75</ele>
        <time>2013-03-31T14:17:17Z</time>
      </trkpt>
      <trkpt lat="46.0507" lon="3.57229">
        <ele>395.91</ele>
        <time>2013-03-31T14:17:19Z</time>
      </trkpt>
      <trkpt lat="46.05085" lon="3.57251">
        <ele>394.19</ele>
        <time>2013-03-31T14:17:21Z</time>
      </trkpt>
      <trkpt lat="46.05101" lon="3.57272">
        <ele>393.04</ele>
        <time>2013-03-31T14:17:23Z</time>
      </trkpt>
      <trkpt lat="46.05122" lon="3.57279">
        <ele>391.45</ele>
        <time>2013-03-31T14:17:25Z</time>
      </trkpt>
      <trkpt lat="46.05142" lon="3.57283">
        <ele>389.5</ele>
        <time>2013-03-31T14:17:27Z</time>
      </trkpt>
      <trkpt lat="46.05161" lon="3.57287">
        <ele>387.08</ele>
        <time>2013-03-31T14:17:29Z</time>
      </trkpt>
      <trkpt lat="46.05188" lon="3.5729">
        <ele>383.78</ele>
        <time>2013-03-31T14:17:32Z</time>
      </trkpt>
      <trkpt lat="46.05214" lon="3.57294">
        <ele>381.23</ele>
        <time>2013-03-31T14:17:35Z</time>
      </trkpt>
      <trkpt lat="46.05239" lon="3.57296">
        <ele>379.43</ele>
        <time>2013-03-31T14:17:38Z</time>
      </trkpt>
      <trkpt lat="46.05265" lon="3.57298">
        <ele>378.35</ele>
        <time>2013-03-31T14:17:41Z</time>
      </trkpt>
      <trkpt lat="46.05289" lon="3.57302">
        <ele>377.31</ele>
        <time>2013-03-31T14:17:44Z</time>
      </trkpt>
      <trkpt lat="46.05309" lon="3.57307">
        <ele>376.04</ele>
        <time>2013-03-31T14:17:47Z</time>
      </trkpt>
      <trkpt lat="46.05331" lon="3.57311">
        <ele>374.74</ele>
        <time>2013-03-31T14:17:50Z</time>
      </trkpt>
      <trkpt lat="46.05355" lon="3.57313">
        <ele>373.48</ele>
        <time>2013-03-31T14:17:53Z</time>
      </trkpt>
      <trkpt lat="46.05381" lon="3.57311">
        <ele>372.11</ele>
        <time>2013-03-31T14:17:56Z</time>
      </trkpt>
      <trkpt lat="46.05408" lon="3.57305">
        <ele>371.21</ele>
        <time>2013-03-31T14:17:59Z</time>
      </trkpt>
      <trkpt lat="46.05433" lon="3.57294">
        <ele>370.83</ele>
        <time>2013-03-31T14:18:02Z</time>
      </trkpt>
      <trkpt lat="46.05458" lon="3.57279">
        <ele>370.67</ele>
        <time>2013-03-31T14:18:05Z</time>
      </trkpt>
      <trkpt lat="46.05479" lon="3.5726">
        <ele>370.6</ele>
        <time>2013-03-31T14:18:08Z</time>
      </trkpt>
      <trkpt lat="46.05498" lon="3.57238">
        <ele>371.01</ele>
        <time>2013-03-31T14:18:11Z</time>
      </trkpt>
      <trkpt lat="46.05513" lon="3.57217">
        <ele>371.32</ele>
        <time>2013-03-31T14:18:14Z</time>
      </trkpt>
      <trkpt lat="46.05527" lon="3.57195">
        <ele>370.63</ele>
        <time>2013-03-31T14:18:17Z</time>
      </trkpt>
      <trkpt lat="46.05541" lon="3.57178">
        <ele>369.76</ele>
        <time>2013-03-31T14:18:20Z</time>
      </trkpt>
      <trkpt lat="46.05556" lon="3.57161">
        <ele>369.06</ele>
        <time>2013-03-31T14:18:23Z</time>
      </trkpt>
      <trkpt lat="46.05573" lon="3.57146">
        <ele>368.52</ele>
        <time>2013-03-31T14:18:26Z</time>
      </trkpt>
      <trkpt lat="46.05593" lon="3.57131">
        <ele>367.96</ele>
        <time>2013-03-31T14:18:29Z</time>
      </trkpt>
      <trkpt lat="46.05616" lon="3.5712">
        <ele>367.29</ele>
        <time>2013-03-31T14:18:32Z</time>
      </trkpt>
      <trkpt lat="46.05639" lon="3.57107">
        <ele>366.86</ele>
        <time>2013-03-31T14:18:35Z</time>
      </trkpt>
      <trkpt lat="46.05661" lon="3.57096">
        <ele>366.43</ele>
        <time>2013-03-31T14:18:38Z</time>
      </trkpt>
      <trkpt lat="46.05681" lon="3.57086">
        <ele>365.92</ele>
        <time>2013-03-31T14:18:41Z</time>
      </trkpt>
      <trkpt lat="46.05699" lon="3.57073">
        <ele>365.13</ele>
        <time>2013-03-31T14:18:44Z</time>
      </trkpt>
      <trkpt lat="46.05718" lon="3.57064">
        <ele>364.36</ele>
        <time>2013-03-31T14:18:47Z</time>
      </trkpt>
      <trkpt lat="46.05736" lon="3.57054">
        <ele>363.89</ele>
        <time>2013-03-31T14:18:50Z</time>
      </trkpt>
      <trkpt lat="46.05755" lon="3.57047">
        <ele>363.12</ele>
        <time>2013-03-31T14:18:53Z</time>
      </trkpt>
      <trkpt lat="46.05776" lon="3.57045">
        <ele>361.96</ele>
        <time>2013-03-31T14:18:56Z</time>
      </trkpt>
      <trkpt lat="46.05795" lon="3.57045">
        <ele>360.71</ele>
        <time>2013-03-31T14:18:59Z</time>
      </trkpt>
      <trkpt lat="46.05813" lon="3.57045">
        <ele>359.46</ele>
        <time>2013-03-31T14:19:02Z</time>
      </trkpt>
      <trkpt lat="46.05832" lon="3.57045">
        <ele>357.91</ele>
        <time>2013-03-31T14:19:06Z</time>
      </trkpt>
      <trkpt lat="46.0585" lon="3.5703">
        <ele>357.56</ele>
        <time>2013-03-31T14:19:11Z</time>
      </trkpt>
      <trkpt lat="46.05867" lon="3.57008">
        <ele>357.99</ele>
        <time>2013-03-31T14:19:16Z</time>
      </trkpt>
      <trkpt lat="46.05882" lon="3.56983">
        <ele>358.38</ele>
        <time>2013-03-31T14:19:20Z</time>
      </trkpt>
      <trkpt lat="46.05894" lon="3.56961">
        <ele>358.48</ele>
        <time>2013-03-31T14:19:23Z</time>
      </trkpt>
      <trkpt lat="46.05908" lon="3.56942">
        <ele>358.52</ele>
        <time>2013-03-31T14:19:26Z</time>
      </trkpt>
      <trkpt lat="46.0592" lon="3.56918">
        <ele>358.54</ele>
        <time>2013-03-31T14:19:30Z</time>
      </trkpt>
      <trkpt lat="46.05923" lon="3.5689">
        <ele>358.55</ele>
        <time>2013-03-31T14:19:33Z</time>
      </trkpt>
      <trkpt lat="46.05922" lon="3.5686">
        <ele>357.97</ele>
        <time>2013-03-31T14:19:36Z</time>
      </trkpt>
      <trkpt lat="46.05917" lon="3.5683">
        <ele>357.73</ele>
        <time>2013-03-31T14:19:39Z</time>
      </trkpt>
      <trkpt lat="46.05911" lon="3.56805">
        <ele>357.63</ele>
        <time>2013-03-31T14:19:42Z</time>
      </trkpt>
      <trkpt lat="46.05926" lon="3.56781">
        <ele>357.57</ele>
        <time>2013-03-31T14:19:47Z</time>
      </trkpt>
    </trkseg>
  </trk>
</gpx>